<?xml version="1.0" encoding="UTF-8" standalone="no" ?><gpx xmlns="http://www.topografix.com/GPX/1/1" xmlns:gpxx="http://www.garmin.com/xmlschemas/GpxExtensions/v3" xmlns:gpxtrkx="http://www.garmin.com/xmlschemas/TrackStatsExtension/v1" xmlns:wptx1="http://www.garmin.com/xmlschemas/WaypointExtension/v1" xmlns:gpxtpx="http://www.garmin.com/xmlschemas/TrackPointExtension/v1" creator="GPSMAP 62s" version="1.1" xmlns:xsi="http://www.w3.org/2001/XMLSchema-instance" xsi:schemaLocation="http://www.topografix.com/GPX/1/1 http://www.topografix.com/GPX/1/1/gpx.xsd http://www.garmin.com/xmlschemas/GpxExtensions/v3 http://www8.garmin.com/xmlschemas/GpxExtensionsv3.xsd http://www.garmin.com/xmlschemas/TrackStatsExtension/v1 http://www8.garmin.com/xmlschemas/TrackStatsExtension.xsd http://www.garmin.com/xmlschemas/WaypointExtension/v1 http://www8.garmin.com/xmlschemas/WaypointExtensionv1.xsd http://www.garmin.com/xmlschemas/TrackPointExtension/v1 http://www.garmin.com/xmlschemas/TrackPointExtensionv1.xsd"><metadata><link href="http://www.garmin.com"><text>Garmin International</text></link><time>2026-08-20T15:34:11Z</time></metadata><trk><name>2026-08-20 18:34:05</name><extensions><gpxx:TrackExtension><gpxx:DisplayColor>Blue</gpxx:DisplayColor></gpxx:TrackExtension></extensions><trkseg><trkpt lat="59.1129094362" lon="30.4819278885"><ele>121.74</ele><time>2026-08-20T07:18:57Z</time></trkpt><trkpt lat="59.1128826141" lon="30.4819700494"><ele>121.74</ele><time>2026-08-20T07:19:19Z</time></trkpt><trkpt lat="59.1128904931" lon="30.4820124619"><ele>116.94</ele><time>2026-08-20T07:19:34Z</time></trkpt><trkpt lat="59.1128862184" lon="30.4820111208"><ele>113.09</ele><time>2026-08-20T07:19:36Z</time></trkpt><trkpt lat="59.1128878109" lon="30.4820109531"><ele>109.25</ele><time>2026-08-20T07:19:38Z</time></trkpt><trkpt lat="59.1128935106" lon="30.4820000567"><ele>105.88</ele><time>2026-08-20T07:19:40Z</time></trkpt><trkpt lat="59.1128991265" lon="30.4819796048"><ele>102.52</ele><time>2026-08-20T07:19:42Z</time></trkpt><trkpt lat="59.1129013058" lon="30.4819678701"><ele>98.19</ele><time>2026-08-20T07:19:45Z</time></trkpt><trkpt lat="59.1128971148" lon="30.4819663614"><ele>93.87</ele><time>2026-08-20T07:19:48Z</time></trkpt><trkpt lat="59.1128935106" lon="30.4819770064"><ele>90.02</ele><time>2026-08-20T07:19:51Z</time></trkpt><trkpt lat="59.1128838714" lon="30.4819894116"><ele>86.66</ele><time>2026-08-20T07:19:54Z</time></trkpt><trkpt lat="59.1128762439" lon="30.4820093606"><ele>82.81</ele><time>2026-08-20T07:19:58Z</time></trkpt><trkpt lat="59.1128813569" lon="30.4820231907"><ele>79.93</ele><time>2026-08-20T07:20:02Z</time></trkpt><trkpt lat="59.1128940973" lon="30.4820034094"><ele>76.56</ele><time>2026-08-20T07:20:07Z</time></trkpt><trkpt lat="59.1129143815" lon="30.4819021560"><ele>74.64</ele><time>2026-08-20T07:20:11Z</time></trkpt><trkpt lat="59.1129169799" lon="30.4817785230"><ele>71.76</ele><time>2026-08-20T07:20:17Z</time></trkpt><trkpt lat="59.1128901578" lon="30.4816771019"><ele>68.39</ele><time>2026-08-20T07:20:25Z</time></trkpt><trkpt lat="59.1128830332" lon="30.4816466756"><ele>65.51</ele><time>2026-08-20T07:20:35Z</time></trkpt><trkpt lat="59.1128253657" lon="30.4815995693"><ele>62.14</ele><time>2026-08-20T07:20:48Z</time></trkpt><trkpt lat="59.1129025631" lon="30.4817812052"><ele>60.22</ele><time>2026-08-20T07:21:07Z</time></trkpt><trkpt lat="59.1128741484" lon="30.4818385374"><ele>59.26</ele><time>2026-08-20T07:21:18Z</time></trkpt><trkpt lat="59.1129004676" lon="30.4818144813"><ele>57.82</ele><time>2026-08-20T07:21:36Z</time></trkpt><trkpt lat="59.1128826141" lon="30.4818282276"><ele>57.82</ele><time>2026-08-20T07:21:56Z</time></trkpt><trkpt lat="59.1129067540" lon="30.4818817880"><ele>57.82</ele><time>2026-08-20T07:22:11Z</time></trkpt><trkpt lat="59.1129049938" lon="30.4817975499"><ele>57.82</ele><time>2026-08-20T07:22:17Z</time></trkpt><trkpt lat="59.1128444765" lon="30.4818724841"><ele>57.82</ele><time>2026-08-20T07:22:30Z</time></trkpt><trkpt lat="59.1128413752" lon="30.4818258807"><ele>57.34</ele><time>2026-08-20T07:22:50Z</time></trkpt><trkpt lat="59.1128721368" lon="30.4818663653"><ele>57.82</ele><time>2026-08-20T07:23:11Z</time></trkpt><trkpt lat="59.1128662694" lon="30.4819500167"><ele>57.82</ele><time>2026-08-20T07:23:28Z</time></trkpt><trkpt lat="59.1128685325" lon="30.4819615837"><ele>57.82</ele><time>2026-08-20T07:23:50Z</time></trkpt><trkpt lat="59.1128698736" lon="30.4820389487"><ele>58.30</ele><time>2026-08-20T07:24:06Z</time></trkpt><trkpt lat="59.1128541995" lon="30.4820635915"><ele>58.30</ele><time>2026-08-20T07:24:22Z</time></trkpt><trkpt lat="59.1128854640" lon="30.4820066784"><ele>58.30</ele><time>2026-08-20T07:24:57Z</time></trkpt><trkpt lat="59.1128905769" lon="30.4819913395"><ele>57.82</ele><time>2026-08-20T07:25:08Z</time></trkpt><trkpt lat="59.1129038204" lon="30.4820302315"><ele>58.30</ele><time>2026-08-20T07:25:21Z</time></trkpt><trkpt lat="59.1129298043" lon="30.4820487555"><ele>58.30</ele><time>2026-08-20T07:25:46Z</time></trkpt><trkpt lat="59.1129081789" lon="30.4819959495"><ele>57.82</ele><time>2026-08-20T07:26:08Z</time></trkpt><trkpt lat="59.1129002161" lon="30.4818804469"><ele>58.30</ele><time>2026-08-20T07:26:32Z</time></trkpt><trkpt lat="59.1128938459" lon="30.4819111247"><ele>58.30</ele><time>2026-08-20T07:26:49Z</time></trkpt><trkpt lat="59.1128878109" lon="30.4819552973"><ele>58.30</ele><time>2026-08-20T07:27:07Z</time></trkpt><trkpt lat="59.1128744837" lon="30.4820414633"><ele>58.30</ele><time>2026-08-20T07:27:20Z</time></trkpt><trkpt lat="59.1128810216" lon="30.4819801915"><ele>58.78</ele><time>2026-08-20T07:27:37Z</time></trkpt><trkpt lat="59.1128799319" lon="30.4819660261"><ele>58.78</ele><time>2026-08-20T07:27:51Z</time></trkpt><trkpt lat="59.1128678620" lon="30.4819051735"><ele>58.78</ele><time>2026-08-20T07:28:16Z</time></trkpt><trkpt lat="59.1128765792" lon="30.4818591569"><ele>58.78</ele><time>2026-08-20T07:28:30Z</time></trkpt><trkpt lat="59.1128998809" lon="30.4819383658"><ele>58.30</ele><time>2026-08-20T07:28:50Z</time></trkpt><trkpt lat="59.1128720529" lon="30.4819301516"><ele>58.78</ele><time>2026-08-20T07:29:07Z</time></trkpt><trkpt lat="59.1128716338" lon="30.4820396192"><ele>59.26</ele><time>2026-08-20T07:29:26Z</time></trkpt><trkpt lat="59.1127408762" lon="30.4820705485"><ele>58.78</ele><time>2026-08-20T07:29:45Z</time></trkpt><trkpt lat="59.1128222644" lon="30.4820572212"><ele>58.78</ele><time>2026-08-20T07:29:51Z</time></trkpt><trkpt lat="59.1128813569" lon="30.4818894155"><ele>59.26</ele><time>2026-08-20T07:30:02Z</time></trkpt><trkpt lat="59.1128666047" lon="30.4818077758"><ele>59.26</ele><time>2026-08-20T07:30:28Z</time></trkpt><trkpt lat="59.1128473263" lon="30.4818669520"><ele>59.26</ele><time>2026-08-20T07:30:56Z</time></trkpt><trkpt lat="59.1128482483" lon="30.4818708077"><ele>59.26</ele><time>2026-08-20T07:31:21Z</time></trkpt><trkpt lat="59.1128705442" lon="30.4819153994"><ele>59.74</ele><time>2026-08-20T07:31:50Z</time></trkpt><trkpt lat="59.1128501762" lon="30.4819710553"><ele>59.26</ele><time>2026-08-20T07:32:07Z</time></trkpt><trkpt lat="59.1128293891" lon="30.4819021560"><ele>59.74</ele><time>2026-08-20T07:32:31Z</time></trkpt><trkpt lat="59.1128474101" lon="30.4818475898"><ele>59.26</ele><time>2026-08-20T07:32:50Z</time></trkpt><trkpt lat="59.1128606535" lon="30.4820623342"><ele>59.26</ele><time>2026-08-20T07:33:04Z</time></trkpt><trkpt lat="59.1128003877" lon="30.4820824508"><ele>59.26</ele><time>2026-08-20T07:33:20Z</time></trkpt><trkpt lat="59.1128662694" lon="30.4819545429"><ele>59.26</ele><time>2026-08-20T07:33:34Z</time></trkpt><trkpt lat="59.1128625814" lon="30.4819640983"><ele>59.26</ele><time>2026-08-20T07:33:50Z</time></trkpt><trkpt lat="59.1128742322" lon="30.4818983003"><ele>59.74</ele><time>2026-08-20T07:34:11Z</time></trkpt><trkpt lat="59.1128173191" lon="30.4818994738"><ele>59.26</ele><time>2026-08-20T07:34:37Z</time></trkpt><trkpt lat="59.1128379386" lon="30.4820452351"><ele>58.78</ele><time>2026-08-20T07:34:54Z</time></trkpt><trkpt lat="59.1129236855" lon="30.4821947683"><ele>58.78</ele><time>2026-08-20T07:35:10Z</time></trkpt><trkpt lat="59.1129405331" lon="30.4822259489"><ele>58.30</ele><time>2026-08-20T07:35:29Z</time></trkpt><trkpt lat="59.1129344143" lon="30.4822646733"><ele>58.30</ele><time>2026-08-20T07:35:31Z</time></trkpt><trkpt lat="59.1129557882" lon="30.4824772384"><ele>58.30</ele><time>2026-08-20T07:35:40Z</time></trkpt><trkpt lat="59.1128993779" lon="30.4826184735"><ele>57.34</ele><time>2026-08-20T07:35:52Z</time></trkpt><trkpt lat="59.1128495056" lon="30.4826276936"><ele>57.82</ele><time>2026-08-20T07:35:56Z</time></trkpt><trkpt lat="59.1127053369" lon="30.4826549347"><ele>58.30</ele><time>2026-08-20T07:36:10Z</time></trkpt><trkpt lat="59.1126446519" lon="30.4826754704"><ele>58.30</ele><time>2026-08-20T07:36:16Z</time></trkpt><trkpt lat="59.1126167402" lon="30.4826908093"><ele>58.30</ele><time>2026-08-20T07:36:19Z</time></trkpt><trkpt lat="59.1125933547" lon="30.4826962575"><ele>58.30</ele><time>2026-08-20T07:36:21Z</time></trkpt><trkpt lat="59.1124766786" lon="30.4827353172"><ele>57.82</ele><time>2026-08-20T07:36:33Z</time></trkpt><trkpt lat="59.1123799514" lon="30.4827711079"><ele>58.30</ele><time>2026-08-20T07:36:45Z</time></trkpt><trkpt lat="59.1122885887" lon="30.4827493150"><ele>57.82</ele><time>2026-08-20T07:36:59Z</time></trkpt><trkpt lat="59.1121796239" lon="30.4827954993"><ele>57.82</ele><time>2026-08-20T07:37:13Z</time></trkpt><trkpt lat="59.1121733375" lon="30.4827773944"><ele>58.30</ele><time>2026-08-20T07:37:24Z</time></trkpt><trkpt lat="59.1121362057" lon="30.4826437030"><ele>57.34</ele><time>2026-08-20T07:37:41Z</time></trkpt><trkpt lat="59.1121005826" lon="30.4825712834"><ele>57.34</ele><time>2026-08-20T07:38:01Z</time></trkpt><trkpt lat="59.1121111438" lon="30.4823967721"><ele>57.34</ele><time>2026-08-20T07:38:42Z</time></trkpt><trkpt lat="59.1120850760" lon="30.4825091735"><ele>57.34</ele><time>2026-08-20T07:39:07Z</time></trkpt><trkpt lat="59.1121562384" lon="30.4824732151"><ele>57.34</ele><time>2026-08-20T07:39:31Z</time></trkpt><trkpt lat="59.1121058632" lon="30.4824005440"><ele>57.34</ele><time>2026-08-20T07:40:09Z</time></trkpt><trkpt lat="59.1121217888" lon="30.4824631568"><ele>57.82</ele><time>2026-08-20T07:40:41Z</time></trkpt><trkpt lat="59.1121497843" lon="30.4825675953"><ele>57.82</ele><time>2026-08-20T07:41:24Z</time></trkpt><trkpt lat="59.1120479442" lon="30.4825007077"><ele>58.30</ele><time>2026-08-20T07:42:05Z</time></trkpt><trkpt lat="59.1121590883" lon="30.4824614804"><ele>58.78</ele><time>2026-08-20T07:42:40Z</time></trkpt><trkpt lat="59.1121662967" lon="30.4826830141"><ele>58.78</ele><time>2026-08-20T07:42:56Z</time></trkpt><trkpt lat="59.1120584216" lon="30.4827792384"><ele>58.78</ele><time>2026-08-20T07:43:21Z</time></trkpt><trkpt lat="59.1121268179" lon="30.4828212317"><ele>59.26</ele><time>2026-08-20T07:43:47Z</time></trkpt><trkpt lat="59.1121762712" lon="30.4829126783"><ele>59.74</ele><time>2026-08-20T07:44:16Z</time></trkpt><trkpt lat="59.1122066975" lon="30.4827258456"><ele>60.22</ele><time>2026-08-20T07:44:44Z</time></trkpt><trkpt lat="59.1122129839" lon="30.4826341476"><ele>60.22</ele><time>2026-08-20T07:45:11Z</time></trkpt><trkpt lat="59.1121460125" lon="30.4827721138"><ele>60.22</ele><time>2026-08-20T07:45:43Z</time></trkpt><trkpt lat="59.1120865010" lon="30.4827528354"><ele>60.70</ele><time>2026-08-20T07:46:08Z</time></trkpt><trkpt lat="59.1121195257" lon="30.4824065790"><ele>60.70</ele><time>2026-08-20T07:46:24Z</time></trkpt><trkpt lat="59.1121248901" lon="30.4823707882"><ele>61.18</ele><time>2026-08-20T07:46:27Z</time></trkpt><trkpt lat="59.1121548973" lon="30.4822601471"><ele>60.70</ele><time>2026-08-20T07:46:32Z</time></trkpt><trkpt lat="59.1122987308" lon="30.4821979534"><ele>61.18</ele><time>2026-08-20T07:46:45Z</time></trkpt><trkpt lat="59.1123746708" lon="30.4821637552"><ele>60.70</ele><time>2026-08-20T07:46:52Z</time></trkpt><trkpt lat="59.1124221962" lon="30.4821351729"><ele>61.18</ele><time>2026-08-20T07:46:56Z</time></trkpt><trkpt lat="59.1125667002" lon="30.4820729792"><ele>61.66</ele><time>2026-08-20T07:47:11Z</time></trkpt><trkpt lat="59.1127117909" lon="30.4820858873"><ele>61.18</ele><time>2026-08-20T07:47:27Z</time></trkpt><trkpt lat="59.1127258725" lon="30.4820697941"><ele>61.18</ele><time>2026-08-20T07:47:28Z</time></trkpt><trkpt lat="59.1128117032" lon="30.4820402060"><ele>61.66</ele><time>2026-08-20T07:47:38Z</time></trkpt><trkpt lat="59.1128326580" lon="30.4819271341"><ele>60.22</ele><time>2026-08-20T07:47:52Z</time></trkpt><trkpt lat="59.1128471587" lon="30.4818888288"><ele>61.18</ele><time>2026-08-20T07:48:10Z</time></trkpt><trkpt lat="59.1128397826" lon="30.4818699695"><ele>60.70</ele><time>2026-08-20T07:48:26Z</time></trkpt><trkpt lat="59.1128436383" lon="30.4819251224"><ele>61.18</ele><time>2026-08-20T07:48:44Z</time></trkpt><trkpt lat="59.1128165647" lon="30.4818685446"><ele>61.18</ele><time>2026-08-20T07:49:00Z</time></trkpt><trkpt lat="59.1128754057" lon="30.4818868171"><ele>61.18</ele><time>2026-08-20T07:49:16Z</time></trkpt><trkpt lat="59.1128311493" lon="30.4819285590"><ele>61.18</ele><time>2026-08-20T07:49:37Z</time></trkpt><trkpt lat="59.1128524393" lon="30.4819663614"><ele>61.18</ele><time>2026-08-20T07:50:00Z</time></trkpt><trkpt lat="59.1128747351" lon="30.4819610808"><ele>61.18</ele><time>2026-08-20T07:50:26Z</time></trkpt><trkpt lat="59.1128909122" lon="30.4819558002"><ele>61.18</ele><time>2026-08-20T07:50:56Z</time></trkpt><trkpt lat="59.1129233502" lon="30.4818793572"><ele>61.18</ele><time>2026-08-20T07:51:26Z</time></trkpt><trkpt lat="59.1128812730" lon="30.4819602426"><ele>61.18</ele><time>2026-08-20T07:51:44Z</time></trkpt><trkpt lat="59.1128550377" lon="30.4819061793"><ele>60.70</ele><time>2026-08-20T07:52:12Z</time></trkpt><trkpt lat="59.1129096039" lon="30.4819025751"><ele>60.70</ele><time>2026-08-20T07:52:39Z</time></trkpt><trkpt lat="59.1129691154" lon="30.4818809498"><ele>61.18</ele><time>2026-08-20T07:53:09Z</time></trkpt><trkpt lat="59.1128924210" lon="30.4820357636"><ele>61.66</ele><time>2026-08-20T07:53:32Z</time></trkpt><trkpt lat="59.1128246114" lon="30.4820826184"><ele>61.66</ele><time>2026-08-20T07:54:00Z</time></trkpt><trkpt lat="59.1128839552" lon="30.4819976259"><ele>61.66</ele><time>2026-08-20T07:54:32Z</time></trkpt><trkpt lat="59.1128277127" lon="30.4820383620"><ele>61.66</ele><time>2026-08-20T07:55:02Z</time></trkpt><trkpt lat="59.1127649322" lon="30.4820057563"><ele>61.66</ele><time>2026-08-20T07:55:16Z</time></trkpt><trkpt lat="59.1126484238" lon="30.4821241926"><ele>61.18</ele><time>2026-08-20T07:55:31Z</time></trkpt><trkpt lat="59.1126314085" lon="30.4821303952"><ele>61.66</ele><time>2026-08-20T07:55:33Z</time></trkpt><trkpt lat="59.1124714818" lon="30.4821711313"><ele>61.66</ele><time>2026-08-20T07:55:48Z</time></trkpt><trkpt lat="59.1123278160" lon="30.4822254460"><ele>61.18</ele><time>2026-08-20T07:56:02Z</time></trkpt><trkpt lat="59.1122982278" lon="30.4822460655"><ele>61.18</ele><time>2026-08-20T07:56:08Z</time></trkpt><trkpt lat="59.1121159215" lon="30.4822918307"><ele>61.18</ele><time>2026-08-20T07:56:24Z</time></trkpt><trkpt lat="59.1119599342" lon="30.4823039845"><ele>61.18</ele><time>2026-08-20T07:56:39Z</time></trkpt><trkpt lat="59.1117627081" lon="30.4823831934"><ele>60.70</ele><time>2026-08-20T07:56:55Z</time></trkpt><trkpt lat="59.1117513087" lon="30.4823889770"><ele>60.70</ele><time>2026-08-20T07:56:56Z</time></trkpt><trkpt lat="59.1116829962" lon="30.4823812656"><ele>60.70</ele><time>2026-08-20T07:57:02Z</time></trkpt><trkpt lat="59.1115816589" lon="30.4823882226"><ele>61.18</ele><time>2026-08-20T07:57:10Z</time></trkpt><trkpt lat="59.1113797389" lon="30.4824352451"><ele>61.18</ele><time>2026-08-20T07:57:27Z</time></trkpt><trkpt lat="59.1112268530" lon="30.4825066589"><ele>60.70</ele><time>2026-08-20T07:57:42Z</time></trkpt><trkpt lat="59.1110502463" lon="30.4825608060"><ele>60.22</ele><time>2026-08-20T07:57:57Z</time></trkpt><trkpt lat="59.1108543612" lon="30.4825590458"><ele>59.74</ele><time>2026-08-20T07:58:12Z</time></trkpt><trkpt lat="59.1107397806" lon="30.4825873766"><ele>59.74</ele><time>2026-08-20T07:58:22Z</time></trkpt><trkpt lat="59.1105462424" lon="30.4826983530"><ele>60.22</ele><time>2026-08-20T07:58:39Z</time></trkpt><trkpt lat="59.1103776824" lon="30.4827219062"><ele>60.22</ele><time>2026-08-20T07:58:53Z</time></trkpt><trkpt lat="59.1103022452" lon="30.4827074055"><ele>60.22</ele><time>2026-08-20T07:59:00Z</time></trkpt><trkpt lat="59.1101312544" lon="30.4828031268"><ele>59.26</ele><time>2026-08-20T07:59:14Z</time></trkpt><trkpt lat="59.1099403985" lon="30.4828430247"><ele>59.26</ele><time>2026-08-20T07:59:29Z</time></trkpt><trkpt lat="59.1098108981" lon="30.4828317929"><ele>58.78</ele><time>2026-08-20T07:59:46Z</time></trkpt><trkpt lat="59.1097890213" lon="30.4828410130"><ele>58.78</ele><time>2026-08-20T07:59:49Z</time></trkpt><trkpt lat="59.1095497180" lon="30.4829433560"><ele>58.78</ele><time>2026-08-20T08:00:07Z</time></trkpt><trkpt lat="59.1093988437" lon="30.4829824995"><ele>58.78</ele><time>2026-08-20T08:00:20Z</time></trkpt><trkpt lat="59.1092344746" lon="30.4830000177"><ele>58.78</ele><time>2026-08-20T08:00:33Z</time></trkpt><trkpt lat="59.1090344824" lon="30.4830852617"><ele>58.78</ele><time>2026-08-20T08:00:51Z</time></trkpt><trkpt lat="59.1090471391" lon="30.4831808992"><ele>58.30</ele><time>2026-08-20T08:01:04Z</time></trkpt><trkpt lat="59.1090870369" lon="30.4832983296"><ele>57.82</ele><time>2026-08-20T08:01:21Z</time></trkpt><trkpt lat="59.1090163775" lon="30.4832912050"><ele>57.34</ele><time>2026-08-20T08:01:37Z</time></trkpt><trkpt lat="59.1089743003" lon="30.4831995070"><ele>58.30</ele><time>2026-08-20T08:01:49Z</time></trkpt><trkpt lat="59.1090203170" lon="30.4832179472"><ele>57.82</ele><time>2026-08-20T08:02:07Z</time></trkpt><trkpt lat="59.1089930758" lon="30.4831980821"><ele>58.30</ele><time>2026-08-20T08:02:23Z</time></trkpt><trkpt lat="59.1089364979" lon="30.4831578489"><ele>57.82</ele><time>2026-08-20T08:02:38Z</time></trkpt><trkpt lat="59.1088384297" lon="30.4831740260"><ele>57.34</ele><time>2026-08-20T08:02:52Z</time></trkpt><trkpt lat="59.1087065823" lon="30.4830808192"><ele>57.34</ele><time>2026-08-20T08:03:10Z</time></trkpt><trkpt lat="59.1086229309" lon="30.4828663263"><ele>57.34</ele><time>2026-08-20T08:03:25Z</time></trkpt><trkpt lat="59.1085277963" lon="30.4827654921"><ele>57.34</ele><time>2026-08-20T08:03:38Z</time></trkpt><trkpt lat="59.1083785985" lon="30.4826677591"><ele>57.34</ele><time>2026-08-20T08:03:54Z</time></trkpt><trkpt lat="59.1082886606" lon="30.4825209919"><ele>56.86</ele><time>2026-08-20T08:04:08Z</time></trkpt><trkpt lat="59.1082598269" lon="30.4825816769"><ele>56.86</ele><time>2026-08-20T08:04:20Z</time></trkpt><trkpt lat="59.1081757564" lon="30.4824698623"><ele>55.89</ele><time>2026-08-20T08:04:37Z</time></trkpt><trkpt lat="59.1081402171" lon="30.4823138751"><ele>56.86</ele><time>2026-08-20T08:04:52Z</time></trkpt><trkpt lat="59.1081564780" lon="30.4820167366"><ele>56.86</ele><time>2026-08-20T08:05:12Z</time></trkpt><trkpt lat="59.1080800351" lon="30.4817242082"><ele>57.34</ele><time>2026-08-20T08:05:31Z</time></trkpt><trkpt lat="59.1080615949" lon="30.4816465918"><ele>57.34</ele><time>2026-08-20T08:05:49Z</time></trkpt><trkpt lat="59.1080406401" lon="30.4813771974"><ele>57.34</ele><time>2026-08-20T08:06:05Z</time></trkpt><trkpt lat="59.1080508661" lon="30.4810728505"><ele>57.82</ele><time>2026-08-20T08:06:23Z</time></trkpt><trkpt lat="59.1079784464" lon="30.4808975011"><ele>57.82</ele><time>2026-08-20T08:06:39Z</time></trkpt><trkpt lat="59.1079579107" lon="30.4805715289"><ele>57.82</ele><time>2026-08-20T08:06:57Z</time></trkpt><trkpt lat="59.1078618541" lon="30.4802620690"><ele>57.82</ele><time>2026-08-20T08:07:15Z</time></trkpt><trkpt lat="59.1077253968" lon="30.4800789244"><ele>57.82</ele><time>2026-08-20T08:07:36Z</time></trkpt><trkpt lat="59.1076350398" lon="30.4798750766"><ele>57.82</ele><time>2026-08-20T08:07:53Z</time></trkpt><trkpt lat="59.1075523105" lon="30.4796703905"><ele>57.34</ele><time>2026-08-20T08:08:12Z</time></trkpt><trkpt lat="59.1075157654" lon="30.4793340247"><ele>57.82</ele><time>2026-08-20T08:08:28Z</time></trkpt><trkpt lat="59.1074858420" lon="30.4791338649"><ele>57.82</ele><time>2026-08-20T08:08:42Z</time></trkpt><trkpt lat="59.1074828245" lon="30.4788117483"><ele>57.82</ele><time>2026-08-20T08:08:58Z</time></trkpt><trkpt lat="59.1074605286" lon="30.4785059765"><ele>57.82</ele><time>2026-08-20T08:09:15Z</time></trkpt><trkpt lat="59.1074057948" lon="30.4780344106"><ele>57.82</ele><time>2026-08-20T08:09:31Z</time></trkpt><trkpt lat="59.1074311920" lon="30.4776807781"><ele>57.82</ele><time>2026-08-20T08:09:47Z</time></trkpt><trkpt lat="59.1074208822" lon="30.4772771895"><ele>57.82</ele><time>2026-08-20T08:10:06Z</time></trkpt><trkpt lat="59.1073909588" lon="30.4768764507"><ele>57.82</ele><time>2026-08-20T08:10:22Z</time></trkpt><trkpt lat="59.1073535755" lon="30.4766362254"><ele>58.30</ele><time>2026-08-20T08:10:36Z</time></trkpt><trkpt lat="59.1073280107" lon="30.4762970097"><ele>58.30</ele><time>2026-08-20T08:10:50Z</time></trkpt><trkpt lat="59.1073125042" lon="30.4760073312"><ele>57.82</ele><time>2026-08-20T08:11:05Z</time></trkpt><trkpt lat="59.1072596982" lon="30.4756833706"><ele>58.30</ele><time>2026-08-20T08:11:21Z</time></trkpt><trkpt lat="59.1072457843" lon="30.4753620084"><ele>58.30</ele><time>2026-08-20T08:11:38Z</time></trkpt><trkpt lat="59.1072258353" lon="30.4750507884"><ele>58.30</ele><time>2026-08-20T08:11:52Z</time></trkpt><trkpt lat="59.1071980912" lon="30.4746137559"><ele>58.30</ele><time>2026-08-20T08:12:08Z</time></trkpt><trkpt lat="59.1071560141" lon="30.4744875245"><ele>58.78</ele><time>2026-08-20T08:12:26Z</time></trkpt><trkpt lat="59.1071288567" lon="30.4745254945"><ele>58.78</ele><time>2026-08-20T08:12:30Z</time></trkpt><trkpt lat="59.1070497315" lon="30.4745270871"><ele>58.78</ele><time>2026-08-20T08:12:38Z</time></trkpt><trkpt lat="59.1069318820" lon="30.4745247401"><ele>58.30</ele><time>2026-08-20T08:12:50Z</time></trkpt><trkpt lat="59.1067424510" lon="30.4746082239"><ele>57.82</ele><time>2026-08-20T08:13:07Z</time></trkpt><trkpt lat="59.1065800097" lon="30.4746636283"><ele>57.82</ele><time>2026-08-20T08:13:22Z</time></trkpt><trkpt lat="59.1064043250" lon="30.4746966530"><ele>58.30</ele><time>2026-08-20T08:13:39Z</time></trkpt><trkpt lat="59.1062669456" lon="30.4747590981"><ele>57.82</ele><time>2026-08-20T08:13:55Z</time></trkpt><trkpt lat="59.1062188335" lon="30.4747844953"><ele>58.30</ele><time>2026-08-20T08:14:00Z</time></trkpt><trkpt lat="59.1061222740" lon="30.4747943021"><ele>57.82</ele><time>2026-08-20T08:14:15Z</time></trkpt><trkpt lat="59.1059568152" lon="30.4747233074"><ele>58.30</ele><time>2026-08-20T08:14:30Z</time></trkpt><trkpt lat="59.1058124788" lon="30.4747114051"><ele>58.30</ele><time>2026-08-20T08:14:45Z</time></trkpt><trkpt lat="59.1056921985" lon="30.4747693241"><ele>58.30</ele><time>2026-08-20T08:14:59Z</time></trkpt><trkpt lat="59.1056362074" lon="30.4747828189"><ele>57.82</ele><time>2026-08-20T08:15:04Z</time></trkpt><trkpt lat="59.1054770350" lon="30.4748156760"><ele>58.30</ele><time>2026-08-20T08:15:21Z</time></trkpt><trkpt lat="59.1053319443" lon="30.4748558253"><ele>57.82</ele><time>2026-08-20T08:15:35Z</time></trkpt><trkpt lat="59.1052737739" lon="30.4748710804"><ele>57.82</ele><time>2026-08-20T08:15:40Z</time></trkpt><trkpt lat="59.1051000170" lon="30.4749340285"><ele>57.82</ele><time>2026-08-20T08:15:55Z</time></trkpt><trkpt lat="59.1049783118" lon="30.4749719147"><ele>57.82</ele><time>2026-08-20T08:16:08Z</time></trkpt><trkpt lat="59.1047898028" lon="30.4749699030"><ele>57.34</ele><time>2026-08-20T08:16:23Z</time></trkpt><trkpt lat="59.1046324745" lon="30.4750611819"><ele>57.82</ele><time>2026-08-20T08:16:39Z</time></trkpt><trkpt lat="59.1044562031" lon="30.4751051031"><ele>57.34</ele><time>2026-08-20T08:16:57Z</time></trkpt><trkpt lat="59.1043040715" lon="30.4751181789"><ele>57.34</ele><time>2026-08-20T08:17:10Z</time></trkpt><trkpt lat="59.1041593999" lon="30.4751390498"><ele>56.86</ele><time>2026-08-20T08:17:24Z</time></trkpt><trkpt lat="59.1040138900" lon="30.4752096254"><ele>56.86</ele><time>2026-08-20T08:17:40Z</time></trkpt><trkpt lat="59.1038252134" lon="30.4752309993"><ele>56.37</ele><time>2026-08-20T08:17:56Z</time></trkpt><trkpt lat="59.1036605090" lon="30.4752874933"><ele>56.86</ele><time>2026-08-20T08:18:14Z</time></trkpt><trkpt lat="59.1036431585" lon="30.4752475955"><ele>56.37</ele><time>2026-08-20T08:18:17Z</time></trkpt><trkpt lat="59.1035326850" lon="30.4753012396"><ele>56.37</ele><time>2026-08-20T08:18:32Z</time></trkpt><trkpt lat="59.1034407355" lon="30.4753039218"><ele>56.37</ele><time>2026-08-20T08:18:44Z</time></trkpt><trkpt lat="59.1033647116" lon="30.4754034989"><ele>56.37</ele><time>2026-08-20T08:18:58Z</time></trkpt><trkpt lat="59.1032466106" lon="30.4754274711"><ele>55.89</ele><time>2026-08-20T08:19:12Z</time></trkpt><trkpt lat="59.1031409148" lon="30.4754470009"><ele>56.37</ele><time>2026-08-20T08:19:27Z</time></trkpt><trkpt lat="59.1030311957" lon="30.4754572269"><ele>56.37</ele><time>2026-08-20T08:19:41Z</time></trkpt><trkpt lat="59.1029270086" lon="30.4754751641"><ele>56.37</ele><time>2026-08-20T08:19:53Z</time></trkpt><trkpt lat="59.1028144397" lon="30.4754874855"><ele>56.37</ele><time>2026-08-20T08:20:05Z</time></trkpt><trkpt lat="59.1027074028" lon="30.4755441472"><ele>56.37</ele><time>2026-08-20T08:20:17Z</time></trkpt><trkpt lat="59.1025632340" lon="30.4755863920"><ele>56.37</ele><time>2026-08-20T08:20:32Z</time></trkpt><trkpt lat="59.1024614777" lon="30.4756353423"><ele>56.37</ele><time>2026-08-20T08:20:44Z</time></trkpt><trkpt lat="59.1024100967" lon="30.4756573029"><ele>56.37</ele><time>2026-08-20T08:20:49Z</time></trkpt><trkpt lat="59.1022911575" lon="30.4755630903"><ele>56.37</ele><time>2026-08-20T08:21:02Z</time></trkpt><trkpt lat="59.1021755710" lon="30.4756560456"><ele>56.37</ele><time>2026-08-20T08:21:17Z</time></trkpt><trkpt lat="59.1019935161" lon="30.4756260384"><ele>55.89</ele><time>2026-08-20T08:21:34Z</time></trkpt><trkpt lat="59.1019431408" lon="30.4755186662"><ele>56.37</ele><time>2026-08-20T08:21:46Z</time></trkpt><trkpt lat="59.1018564720" lon="30.4755457398"><ele>55.89</ele><time>2026-08-20T08:21:59Z</time></trkpt><trkpt lat="59.1017647739" lon="30.4754258785"><ele>55.89</ele><time>2026-08-20T08:22:14Z</time></trkpt><trkpt lat="59.1016438231" lon="30.4753929377"><ele>55.89</ele><time>2026-08-20T08:22:31Z</time></trkpt><trkpt lat="59.1016219463" lon="30.4753310792"><ele>55.89</ele><time>2026-08-20T08:22:45Z</time></trkpt><trkpt lat="59.1015835572" lon="30.4751756787"><ele>55.89</ele><time>2026-08-20T08:23:02Z</time></trkpt><trkpt lat="59.1015334334" lon="30.4751154128"><ele>55.89</ele><time>2026-08-20T08:23:15Z</time></trkpt><trkpt lat="59.1014672164" lon="30.4751283210"><ele>55.89</ele><time>2026-08-20T08:23:28Z</time></trkpt><trkpt lat="59.1013594251" lon="30.4752772674"><ele>55.89</ele><time>2026-08-20T08:23:46Z</time></trkpt><trkpt lat="59.1013564914" lon="30.4753895011"><ele>55.41</ele><time>2026-08-20T08:24:02Z</time></trkpt><trkpt lat="59.1013012547" lon="30.4755771719"><ele>55.41</ele><time>2026-08-20T08:24:20Z</time></trkpt><trkpt lat="59.1012595128" lon="30.4757464025"><ele>55.41</ele><time>2026-08-20T08:24:36Z</time></trkpt><trkpt lat="59.1012244765" lon="30.4757192452"><ele>54.93</ele><time>2026-08-20T08:24:51Z</time></trkpt><trkpt lat="59.1010822356" lon="30.4759278707"><ele>55.41</ele><time>2026-08-20T08:25:10Z</time></trkpt><trkpt lat="59.1009509750" lon="30.4759549443"><ele>55.41</ele><time>2026-08-20T08:25:25Z</time></trkpt><trkpt lat="59.1008054651" lon="30.4759621527"><ele>55.41</ele><time>2026-08-20T08:25:42Z</time></trkpt><trkpt lat="59.1006674152" lon="30.4760010447"><ele>55.41</ele><time>2026-08-20T08:25:59Z</time></trkpt><trkpt lat="59.1005234979" lon="30.4760484863"><ele>55.41</ele><time>2026-08-20T08:26:18Z</time></trkpt><trkpt lat="59.1003943328" lon="30.4760034755"><ele>54.93</ele><time>2026-08-20T08:26:33Z</time></trkpt><trkpt lat="59.1003411077" lon="30.4759854544"><ele>55.41</ele><time>2026-08-20T08:26:44Z</time></trkpt><trkpt lat="59.1002682690" lon="30.4758817703"><ele>54.93</ele><time>2026-08-20T08:27:04Z</time></trkpt><trkpt lat="59.1002010461" lon="30.4759050719"><ele>54.93</ele><time>2026-08-20T08:27:18Z</time></trkpt><trkpt lat="59.1001261119" lon="30.4761061538"><ele>54.93</ele><time>2026-08-20T08:27:34Z</time></trkpt><trkpt lat="59.1000374313" lon="30.4761122726"><ele>54.93</ele><time>2026-08-20T08:27:46Z</time></trkpt><trkpt lat="59.0999847930" lon="30.4760712851"><ele>54.93</ele><time>2026-08-20T08:27:55Z</time></trkpt><trkpt lat="59.0998774208" lon="30.4761021305"><ele>54.93</ele><time>2026-08-20T08:28:09Z</time></trkpt><trkpt lat="59.0997908358" lon="30.4760301299"><ele>54.93</ele><time>2026-08-20T08:28:24Z</time></trkpt><trkpt lat="59.0996692982" lon="30.4761119373"><ele>54.93</ele><time>2026-08-20T08:28:43Z</time></trkpt><trkpt lat="59.0995701402" lon="30.4761494044"><ele>54.45</ele><time>2026-08-20T08:28:57Z</time></trkpt><trkpt lat="59.0994934458" lon="30.4761663359"><ele>54.93</ele><time>2026-08-20T08:29:08Z</time></trkpt><trkpt lat="59.0994378738" lon="30.4761941638"><ele>54.45</ele><time>2026-08-20T08:29:20Z</time></trkpt><trkpt lat="59.0993347764" lon="30.4762421921"><ele>54.93</ele><time>2026-08-20T08:29:33Z</time></trkpt><trkpt lat="59.0992776956" lon="30.4760696925"><ele>54.45</ele><time>2026-08-20T08:29:44Z</time></trkpt><trkpt lat="59.0992027614" lon="30.4760712013"><ele>54.93</ele><time>2026-08-20T08:29:59Z</time></trkpt><trkpt lat="59.0990921203" lon="30.4760947544"><ele>54.93</ele><time>2026-08-20T08:30:16Z</time></trkpt><trkpt lat="59.0989872627" lon="30.4760250170"><ele>54.45</ele><time>2026-08-20T08:30:31Z</time></trkpt><trkpt lat="59.0989181958" lon="30.4760399368"><ele>54.45</ele><time>2026-08-20T08:30:44Z</time></trkpt><trkpt lat="59.0988403279" lon="30.4761613067"><ele>54.45</ele><time>2026-08-20T08:31:01Z</time></trkpt><trkpt lat="59.0987371467" lon="30.4762074910"><ele>54.45</ele><time>2026-08-20T08:31:16Z</time></trkpt><trkpt lat="59.0986322891" lon="30.4761677608"><ele>54.45</ele><time>2026-08-20T08:31:35Z</time></trkpt><trkpt lat="59.0985612106" lon="30.4761573672"><ele>54.45</ele><time>2026-08-20T08:31:50Z</time></trkpt><trkpt lat="59.0984778106" lon="30.4762960039"><ele>54.93</ele><time>2026-08-20T08:32:08Z</time></trkpt><trkpt lat="59.0983456280" lon="30.4764185473"><ele>54.45</ele><time>2026-08-20T08:32:24Z</time></trkpt><trkpt lat="59.0982477274" lon="30.4765039589"><ele>54.93</ele><time>2026-08-20T08:32:38Z</time></trkpt><trkpt lat="59.0981267765" lon="30.4765634704"><ele>54.93</ele><time>2026-08-20T08:32:53Z</time></trkpt><trkpt lat="59.0980361681" lon="30.4765244946"><ele>54.93</ele><time>2026-08-20T08:33:06Z</time></trkpt><trkpt lat="59.0979148820" lon="30.4765736125"><ele>54.93</ele><time>2026-08-20T08:33:22Z</time></trkpt><trkpt lat="59.0978408698" lon="30.4765981715"><ele>54.45</ele><time>2026-08-20T08:33:34Z</time></trkpt><trkpt lat="59.0977357607" lon="30.4766349681"><ele>54.93</ele><time>2026-08-20T08:33:49Z</time></trkpt><trkpt lat="59.0976430569" lon="30.4766793922"><ele>54.93</ele><time>2026-08-20T08:34:02Z</time></trkpt><trkpt lat="59.0975293145" lon="30.4767028615"><ele>54.93</ele><time>2026-08-20T08:34:17Z</time></trkpt><trkpt lat="59.0975214355" lon="30.4767052922"><ele>54.93</ele><time>2026-08-20T08:34:18Z</time></trkpt><trkpt lat="59.0974948648" lon="30.4767725151"><ele>54.93</ele><time>2026-08-20T08:34:30Z</time></trkpt><trkpt lat="59.0974582359" lon="30.4767403286"><ele>54.93</ele><time>2026-08-20T08:34:43Z</time></trkpt><trkpt lat="59.0975208487" lon="30.4766792245"><ele>54.93</ele><time>2026-08-20T08:35:04Z</time></trkpt><trkpt lat="59.0975299012" lon="30.4765488859"><ele>54.93</ele><time>2026-08-20T08:35:28Z</time></trkpt><trkpt lat="59.0974563919" lon="30.4765412584"><ele>54.93</ele><time>2026-08-20T08:36:09Z</time></trkpt><trkpt lat="59.0975470841" lon="30.4766661488"><ele>54.93</ele><time>2026-08-20T08:36:43Z</time></trkpt><trkpt lat="59.0975180827" lon="30.4767327011"><ele>54.93</ele><time>2026-08-20T08:37:10Z</time></trkpt><trkpt lat="59.0976003930" lon="30.4767564218"><ele>55.41</ele><time>2026-08-20T08:37:30Z</time></trkpt><trkpt lat="59.0976143070" lon="30.4767424241"><ele>54.93</ele><time>2026-08-20T08:37:56Z</time></trkpt><trkpt lat="59.0975991357" lon="30.4767176975"><ele>54.93</ele><time>2026-08-20T08:38:17Z</time></trkpt><trkpt lat="59.0975961182" lon="30.4767037835"><ele>54.93</ele><time>2026-08-20T08:38:36Z</time></trkpt><trkpt lat="59.0975666139" lon="30.4766223114"><ele>55.41</ele><time>2026-08-20T08:38:40Z</time></trkpt><trkpt lat="59.0975185018" lon="30.4764335509"><ele>54.93</ele><time>2026-08-20T08:38:50Z</time></trkpt><trkpt lat="59.0975114610" lon="30.4762616381"><ele>55.41</ele><time>2026-08-20T08:39:02Z</time></trkpt><trkpt lat="59.0975011513" lon="30.4761245102"><ele>55.41</ele><time>2026-08-20T08:39:15Z</time></trkpt><trkpt lat="59.0974858962" lon="30.4759843647"><ele>55.41</ele><time>2026-08-20T08:39:27Z</time></trkpt><trkpt lat="59.0974741615" lon="30.4758240189"><ele>55.41</ele><time>2026-08-20T08:39:37Z</time></trkpt><trkpt lat="59.0974721499" lon="30.4758137092"><ele>55.41</ele><time>2026-08-20T08:39:38Z</time></trkpt><trkpt lat="59.0974657796" lon="30.4756609909"><ele>55.41</ele><time>2026-08-20T08:39:51Z</time></trkpt><trkpt lat="59.0974678751" lon="30.4755739029"><ele>55.41</ele><time>2026-08-20T08:40:01Z</time></trkpt><trkpt lat="59.0974373650" lon="30.4754030798"><ele>55.41</ele><time>2026-08-20T08:40:14Z</time></trkpt><trkpt lat="59.0974318329" lon="30.4753330909"><ele>55.41</ele><time>2026-08-20T08:40:18Z</time></trkpt><trkpt lat="59.0974331740" lon="30.4750770237"><ele>55.41</ele><time>2026-08-20T08:40:33Z</time></trkpt><trkpt lat="59.0974264685" lon="30.4749636166"><ele>55.41</ele><time>2026-08-20T08:40:39Z</time></trkpt><trkpt lat="59.0974281449" lon="30.4748388100"><ele>55.41</ele><time>2026-08-20T08:40:45Z</time></trkpt><trkpt lat="59.0974413883" lon="30.4747172724"><ele>55.41</ele><time>2026-08-20T08:40:51Z</time></trkpt><trkpt lat="59.0974081121" lon="30.4744871054"><ele>54.93</ele><time>2026-08-20T08:41:04Z</time></trkpt><trkpt lat="59.0974095371" lon="30.4744661506"><ele>54.93</ele><time>2026-08-20T08:41:05Z</time></trkpt><trkpt lat="59.0973760094" lon="30.4741297849"><ele>55.41</ele><time>2026-08-20T08:41:22Z</time></trkpt><trkpt lat="59.0973773506" lon="30.4738896433"><ele>55.41</ele><time>2026-08-20T08:41:35Z</time></trkpt><trkpt lat="59.0973501932" lon="30.4737082589"><ele>55.89</ele><time>2026-08-20T08:41:47Z</time></trkpt><trkpt lat="59.0973490197" lon="30.4737127852"><ele>56.37</ele><time>2026-08-20T08:42:03Z</time></trkpt><trkpt lat="59.0973615926" lon="30.4737154674"><ele>55.89</ele><time>2026-08-20T08:42:28Z</time></trkpt><trkpt lat="59.0973291546" lon="30.4735592287"><ele>55.89</ele><time>2026-08-20T08:42:42Z</time></trkpt><trkpt lat="59.0973125584" lon="30.4734360985"><ele>55.89</ele><time>2026-08-20T08:42:58Z</time></trkpt><trkpt lat="59.0973133128" lon="30.4732504394"><ele>55.41</ele><time>2026-08-20T08:43:12Z</time></trkpt><trkpt lat="59.0973156597" lon="30.4730900936"><ele>55.41</ele><time>2026-08-20T08:43:25Z</time></trkpt><trkpt lat="59.0972958785" lon="30.4730734974"><ele>55.89</ele><time>2026-08-20T08:43:38Z</time></trkpt><trkpt lat="59.0973090380" lon="30.4730588291"><ele>55.89</ele><time>2026-08-20T08:44:03Z</time></trkpt><trkpt lat="59.0972618479" lon="30.4731149040"><ele>55.89</ele><time>2026-08-20T08:44:31Z</time></trkpt><trkpt lat="59.0972943697" lon="30.4731076118"><ele>55.89</ele><time>2026-08-20T08:44:55Z</time></trkpt><trkpt lat="59.0972856525" lon="30.4729052726"><ele>56.37</ele><time>2026-08-20T08:45:10Z</time></trkpt><trkpt lat="59.0972797014" lon="30.4727627803"><ele>55.89</ele><time>2026-08-20T08:45:29Z</time></trkpt><trkpt lat="59.0972741693" lon="30.4725696612"><ele>55.89</ele><time>2026-08-20T08:45:43Z</time></trkpt><trkpt lat="59.0972771868" lon="30.4725567531"><ele>55.89</ele><time>2026-08-20T08:45:45Z</time></trkpt><trkpt lat="59.0972885862" lon="30.4723778833"><ele>55.89</ele><time>2026-08-20T08:45:58Z</time></trkpt><trkpt lat="59.0972780250" lon="30.4722560942"><ele>55.89</ele><time>2026-08-20T08:46:10Z</time></trkpt><trkpt lat="59.0972620994" lon="30.4721859377"><ele>55.89</ele><time>2026-08-20T08:46:19Z</time></trkpt><trkpt lat="59.0972389653" lon="30.4719953332"><ele>55.89</ele><time>2026-08-20T08:46:32Z</time></trkpt><trkpt lat="59.0972397197" lon="30.4719858617"><ele>55.89</ele><time>2026-08-20T08:46:33Z</time></trkpt><trkpt lat="59.0972426534" lon="30.4718763940"><ele>55.89</ele><time>2026-08-20T08:46:43Z</time></trkpt><trkpt lat="59.0972543880" lon="30.4717350751"><ele>55.89</ele><time>2026-08-20T08:46:51Z</time></trkpt><trkpt lat="59.0972614288" lon="30.4716058262"><ele>55.89</ele><time>2026-08-20T08:46:57Z</time></trkpt><trkpt lat="59.0972192679" lon="30.4713735636"><ele>55.89</ele><time>2026-08-20T08:47:09Z</time></trkpt><trkpt lat="59.0972159989" lon="30.4712029919"><ele>55.89</ele><time>2026-08-20T08:47:22Z</time></trkpt><trkpt lat="59.0971991513" lon="30.4711286444"><ele>55.89</ele><time>2026-08-20T08:47:39Z</time></trkpt><trkpt lat="59.0971909370" lon="30.4710671213"><ele>55.89</ele><time>2026-08-20T08:48:05Z</time></trkpt><trkpt lat="59.0971698146" lon="30.4707992356"><ele>55.89</ele><time>2026-08-20T08:48:22Z</time></trkpt><trkpt lat="59.0971686412" lon="30.4705940466"><ele>55.89</ele><time>2026-08-20T08:48:33Z</time></trkpt><trkpt lat="59.0971492790" lon="30.4702972434"><ele>55.89</ele><time>2026-08-20T08:48:48Z</time></trkpt><trkpt lat="59.0971563198" lon="30.4700583592"><ele>55.41</ele><time>2026-08-20T08:49:03Z</time></trkpt><trkpt lat="59.0971299168" lon="30.4697798286"><ele>55.41</ele><time>2026-08-20T08:49:18Z</time></trkpt><trkpt lat="59.0971196070" lon="30.4695856199"><ele>55.41</ele><time>2026-08-20T08:49:28Z</time></trkpt><trkpt lat="59.0971248876" lon="30.4693273734"><ele>55.41</ele><time>2026-08-20T08:49:41Z</time></trkpt><trkpt lat="59.0971015859" lon="30.4691520240"><ele>54.93</ele><time>2026-08-20T08:49:54Z</time></trkpt><trkpt lat="59.0971012507" lon="30.4688641056"><ele>54.45</ele><time>2026-08-20T08:50:08Z</time></trkpt><trkpt lat="59.0970802121" lon="30.4685943760"><ele>55.41</ele><time>2026-08-20T08:50:20Z</time></trkpt><trkpt lat="59.0970617719" lon="30.4684222117"><ele>54.93</ele><time>2026-08-20T08:50:34Z</time></trkpt><trkpt lat="59.0970657114" lon="30.4681185354"><ele>54.93</ele><time>2026-08-20T08:50:49Z</time></trkpt><trkpt lat="59.0970247239" lon="30.4677218199"><ele>54.45</ele><time>2026-08-20T08:51:09Z</time></trkpt><trkpt lat="59.0970222093" lon="30.4674209934"><ele>53.97</ele><time>2026-08-20T08:51:26Z</time></trkpt><trkpt lat="59.0970012546" lon="30.4673406109"><ele>53.97</ele><time>2026-08-20T08:51:37Z</time></trkpt><trkpt lat="59.0968943853" lon="30.4673631582"><ele>53.97</ele><time>2026-08-20T08:52:04Z</time></trkpt><trkpt lat="59.0969269071" lon="30.4673112743"><ele>53.49</ele><time>2026-08-20T08:52:31Z</time></trkpt><trkpt lat="59.0969150886" lon="30.4672914930"><ele>53.49</ele><time>2026-08-20T08:53:01Z</time></trkpt><trkpt lat="59.0968585107" lon="30.4672654252"><ele>53.97</ele><time>2026-08-20T08:53:19Z</time></trkpt><trkpt lat="59.0967180301" lon="30.4673149623"><ele>53.97</ele><time>2026-08-20T08:53:34Z</time></trkpt><trkpt lat="59.0966547467" lon="30.4673609789"><ele>53.97</ele><time>2026-08-20T08:53:47Z</time></trkpt><trkpt lat="59.0966122504" lon="30.4674018826"><ele>53.97</ele><time>2026-08-20T08:54:02Z</time></trkpt><trkpt lat="59.0965042077" lon="30.4673829395"><ele>53.97</ele><time>2026-08-20T08:54:14Z</time></trkpt><trkpt lat="59.0964511503" lon="30.4673767369"><ele>53.97</ele><time>2026-08-20T08:54:31Z</time></trkpt><trkpt lat="59.0963939857" lon="30.4673881363"><ele>53.97</ele><time>2026-08-20T08:54:55Z</time></trkpt><trkpt lat="59.0962966718" lon="30.4673753120"><ele>53.97</ele><time>2026-08-20T08:55:09Z</time></trkpt><trkpt lat="59.0962334722" lon="30.4674329795"><ele>54.45</ele><time>2026-08-20T08:55:23Z</time></trkpt><trkpt lat="59.0962012857" lon="30.4675610550"><ele>54.45</ele><time>2026-08-20T08:55:49Z</time></trkpt><trkpt lat="59.0961969271" lon="30.4675603006"><ele>53.97</ele><time>2026-08-20T08:56:19Z</time></trkpt><trkpt lat="59.0962332208" lon="30.4675659165"><ele>54.45</ele><time>2026-08-20T08:56:44Z</time></trkpt><trkpt lat="59.0962270182" lon="30.4677042179"><ele>54.93</ele><time>2026-08-20T08:56:57Z</time></trkpt><trkpt lat="59.0961933229" lon="30.4678537510"><ele>54.93</ele><time>2026-08-20T08:57:12Z</time></trkpt><trkpt lat="59.0962396748" lon="30.4679322895"><ele>55.41</ele><time>2026-08-20T08:57:24Z</time></trkpt><trkpt lat="59.0962395910" lon="30.4680858459"><ele>55.41</ele><time>2026-08-20T08:57:39Z</time></trkpt><trkpt lat="59.0962799080" lon="30.4682495445"><ele>55.41</ele><time>2026-08-20T08:57:53Z</time></trkpt><trkpt lat="59.0962875355" lon="30.4684156738"><ele>55.41</ele><time>2026-08-20T08:58:06Z</time></trkpt><trkpt lat="59.0962827578" lon="30.4685481917"><ele>55.41</ele><time>2026-08-20T08:58:23Z</time></trkpt><trkpt lat="59.0962445363" lon="30.4687378742"><ele>55.41</ele><time>2026-08-20T08:58:38Z</time></trkpt><trkpt lat="59.0962148644" lon="30.4688167479"><ele>55.41</ele><time>2026-08-20T08:58:47Z</time></trkpt><trkpt lat="59.0961950831" lon="30.4689755011"><ele>55.41</ele><time>2026-08-20T08:59:00Z</time></trkpt><trkpt lat="59.0962262638" lon="30.4691361822"><ele>55.89</ele><time>2026-08-20T08:59:16Z</time></trkpt><trkpt lat="59.0962404292" lon="30.4692531098"><ele>55.41</ele><time>2026-08-20T08:59:29Z</time></trkpt><trkpt lat="59.0962264314" lon="30.4693509266"><ele>55.41</ele><time>2026-08-20T08:59:45Z</time></trkpt><trkpt lat="59.0962003637" lon="30.4694713745"><ele>55.89</ele><time>2026-08-20T08:59:59Z</time></trkpt><trkpt lat="59.0962454583" lon="30.4696254339"><ele>55.41</ele><time>2026-08-20T09:00:13Z</time></trkpt><trkpt lat="59.0962975100" lon="30.4697512463"><ele>55.41</ele><time>2026-08-20T09:00:27Z</time></trkpt><trkpt lat="59.0963018686" lon="30.4698246717"><ele>55.41</ele><time>2026-08-20T09:00:39Z</time></trkpt><trkpt lat="59.0962925646" lon="30.4699388333"><ele>55.89</ele><time>2026-08-20T09:00:57Z</time></trkpt><trkpt lat="59.0963926446" lon="30.4699564353"><ele>55.41</ele><time>2026-08-20T09:01:12Z</time></trkpt><trkpt lat="59.0964443609" lon="30.4700622987"><ele>55.89</ele><time>2026-08-20T09:01:25Z</time></trkpt><trkpt lat="59.0964104142" lon="30.4701456148"><ele>55.41</ele><time>2026-08-20T09:01:36Z</time></trkpt><trkpt lat="59.0963711031" lon="30.4702492990"><ele>55.41</ele><time>2026-08-20T09:01:48Z</time></trkpt><trkpt lat="59.0963654872" lon="30.4703311902"><ele>55.89</ele><time>2026-08-20T09:02:02Z</time></trkpt><trkpt lat="59.0963675827" lon="30.4703723453"><ele>56.37</ele><time>2026-08-20T09:02:19Z</time></trkpt><trkpt lat="59.0963589493" lon="30.4703750275"><ele>55.89</ele><time>2026-08-20T09:02:43Z</time></trkpt><trkpt lat="59.0963758808" lon="30.4704465251"><ele>55.89</ele><time>2026-08-20T09:02:55Z</time></trkpt><trkpt lat="59.0963633079" lon="30.4705853295"><ele>56.37</ele><time>2026-08-20T09:03:06Z</time></trkpt><trkpt lat="59.0963415988" lon="30.4707261454"><ele>56.37</ele><time>2026-08-20T09:03:19Z</time></trkpt><trkpt lat="59.0963262599" lon="30.4707938712"><ele>56.37</ele><time>2026-08-20T09:03:31Z</time></trkpt><trkpt lat="59.0963103343" lon="30.4708760139"><ele>56.37</ele><time>2026-08-20T09:03:44Z</time></trkpt><trkpt lat="59.0963260084" lon="30.4709739983"><ele>55.89</ele><time>2026-08-20T09:03:57Z</time></trkpt><trkpt lat="59.0963089094" lon="30.4709559772"><ele>54.93</ele><time>2026-08-20T09:04:17Z</time></trkpt><trkpt lat="59.0963111725" lon="30.4709479306"><ele>55.41</ele><time>2026-08-20T09:04:34Z</time></trkpt><trkpt lat="59.0963538364" lon="30.4710252956"><ele>55.89</ele><time>2026-08-20T09:04:50Z</time></trkpt><trkpt lat="59.0963585302" lon="30.4710712284"><ele>55.89</ele><time>2026-08-20T09:05:10Z</time></trkpt><trkpt lat="59.0963312052" lon="30.4711683746"><ele>56.37</ele><time>2026-08-20T09:05:23Z</time></trkpt><trkpt lat="59.0963483881" lon="30.4712936841"><ele>56.37</ele><time>2026-08-20T09:05:34Z</time></trkpt><trkpt lat="59.0963779762" lon="30.4714131262"><ele>55.89</ele><time>2026-08-20T09:05:48Z</time></trkpt><trkpt lat="59.0963743720" lon="30.4714456480"><ele>55.89</ele><time>2026-08-20T09:05:50Z</time></trkpt><trkpt lat="59.0963622183" lon="30.4715685267"><ele>56.37</ele><time>2026-08-20T09:06:00Z</time></trkpt><trkpt lat="59.0963707678" lon="30.4716623202"><ele>56.37</ele><time>2026-08-20T09:06:10Z</time></trkpt><trkpt lat="59.0963939019" lon="30.4717669263"><ele>56.37</ele><time>2026-08-20T09:06:21Z</time></trkpt><trkpt lat="59.0963475499" lon="30.4718841054"><ele>56.37</ele><time>2026-08-20T09:06:33Z</time></trkpt><trkpt lat="59.0963576920" lon="30.4719696008"><ele>56.37</ele><time>2026-08-20T09:06:46Z</time></trkpt><trkpt lat="59.0963570215" lon="30.4719445389"><ele>55.89</ele><time>2026-08-20T09:07:04Z</time></trkpt><trkpt lat="59.0963552613" lon="30.4718942475"><ele>56.37</ele><time>2026-08-20T09:07:19Z</time></trkpt><trkpt lat="59.0963712707" lon="30.4719151184"><ele>56.37</ele><time>2026-08-20T09:07:40Z</time></trkpt><trkpt lat="59.0963641461" lon="30.4719200637"><ele>55.89</ele><time>2026-08-20T09:07:57Z</time></trkpt><trkpt lat="59.0963585302" lon="30.4719116818"><ele>56.37</ele><time>2026-08-20T09:08:10Z</time></trkpt><trkpt lat="59.0963550936" lon="30.4720664117"><ele>56.37</ele><time>2026-08-20T09:08:24Z</time></trkpt><trkpt lat="59.0962999407" lon="30.4721674137"><ele>56.86</ele><time>2026-08-20T09:08:36Z</time></trkpt><trkpt lat="59.0962789860" lon="30.4722970817"><ele>56.37</ele><time>2026-08-20T09:08:50Z</time></trkpt><trkpt lat="59.0963420179" lon="30.4724072199"><ele>56.86</ele><time>2026-08-20T09:09:04Z</time></trkpt><trkpt lat="59.0963989310" lon="30.4725999199"><ele>56.86</ele><time>2026-08-20T09:09:18Z</time></trkpt><trkpt lat="59.0964467917" lon="30.4727741797"><ele>56.86</ele><time>2026-08-20T09:09:33Z</time></trkpt><trkpt lat="59.0964844264" lon="30.4729156662"><ele>56.86</ele><time>2026-08-20T09:09:45Z</time></trkpt><trkpt lat="59.0965482965" lon="30.4730047658"><ele>56.37</ele><time>2026-08-20T09:09:59Z</time></trkpt><trkpt lat="59.0966099873" lon="30.4731077794"><ele>56.37</ele><time>2026-08-20T09:10:13Z</time></trkpt><trkpt lat="59.0966182016" lon="30.4732113797"><ele>56.37</ele><time>2026-08-20T09:10:25Z</time></trkpt><trkpt lat="59.0966244042" lon="30.4733532015"><ele>56.37</ele><time>2026-08-20T09:10:39Z</time></trkpt><trkpt lat="59.0966058802" lon="30.4734934308"><ele>55.89</ele><time>2026-08-20T09:10:52Z</time></trkpt><trkpt lat="59.0966225602" lon="30.4736310616"><ele>55.89</ele><time>2026-08-20T09:11:05Z</time></trkpt><trkpt lat="59.0966347139" lon="30.4737314768"><ele>55.89</ele><time>2026-08-20T09:11:17Z</time></trkpt><trkpt lat="59.0966341272" lon="30.4738109373"><ele>55.41</ele><time>2026-08-20T09:11:28Z</time></trkpt><trkpt lat="59.0966137592" lon="30.4739372525"><ele>55.89</ele><time>2026-08-20T09:11:39Z</time></trkpt><trkpt lat="59.0965747833" lon="30.4741074890"><ele>55.89</ele><time>2026-08-20T09:11:52Z</time></trkpt><trkpt lat="59.0965672396" lon="30.4742241651"><ele>55.89</ele><time>2026-08-20T09:12:04Z</time></trkpt><trkpt lat="59.0965627134" lon="30.4742471315"><ele>55.41</ele><time>2026-08-20T09:12:08Z</time></trkpt><trkpt lat="59.0965587739" lon="30.4744209722"><ele>55.89</ele><time>2026-08-20T09:12:21Z</time></trkpt><trkpt lat="59.0965567622" lon="30.4746154323"><ele>55.41</ele><time>2026-08-20T09:12:33Z</time></trkpt><trkpt lat="59.0965373162" lon="30.4747713357"><ele>55.41</ele><time>2026-08-20T09:12:45Z</time></trkpt><trkpt lat="59.0965974983" lon="30.4749375489"><ele>55.89</ele><time>2026-08-20T09:12:59Z</time></trkpt><trkpt lat="59.0966195427" lon="30.4750140756"><ele>55.41</ele><time>2026-08-20T09:13:11Z</time></trkpt><trkpt lat="59.0966883581" lon="30.4752030876"><ele>55.89</ele><time>2026-08-20T09:13:26Z</time></trkpt><trkpt lat="59.0966601111" lon="30.4752446618"><ele>55.41</ele><time>2026-08-20T09:13:37Z</time></trkpt><trkpt lat="59.0966413356" lon="30.4753361084"><ele>55.41</ele><time>2026-08-20T09:13:48Z</time></trkpt><trkpt lat="59.0966173634" lon="30.4754761700"><ele>55.41</ele><time>2026-08-20T09:14:00Z</time></trkpt><trkpt lat="59.0966161899" lon="30.4755520262"><ele>55.89</ele><time>2026-08-20T09:14:10Z</time></trkpt><trkpt lat="59.0966079757" lon="30.4756750725"><ele>55.41</ele><time>2026-08-20T09:14:21Z</time></trkpt><trkpt lat="59.0965984203" lon="30.4758033995"><ele>55.41</ele><time>2026-08-20T09:14:34Z</time></trkpt><trkpt lat="59.0965897869" lon="30.4758274555"><ele>55.41</ele><time>2026-08-20T09:14:36Z</time></trkpt><trkpt lat="59.0966512263" lon="30.4759912379"><ele>55.89</ele><time>2026-08-20T09:14:49Z</time></trkpt><trkpt lat="59.0966667328" lon="30.4761201516"><ele>55.41</ele><time>2026-08-20T09:15:00Z</time></trkpt><trkpt lat="59.0966234822" lon="30.4762745462"><ele>55.89</ele><time>2026-08-20T09:15:14Z</time></trkpt><trkpt lat="59.0966165252" lon="30.4764603730"><ele>55.41</ele><time>2026-08-20T09:15:27Z</time></trkpt><trkpt lat="59.0966508910" lon="30.4765500594"><ele>55.41</ele><time>2026-08-20T09:15:37Z</time></trkpt><trkpt lat="59.0967178624" lon="30.4766524024"><ele>55.41</ele><time>2026-08-20T09:15:49Z</time></trkpt><trkpt lat="59.0967157669" lon="30.4767502192"><ele>55.41</ele><time>2026-08-20T09:15:57Z</time></trkpt><trkpt lat="59.0967346262" lon="30.4768603574"><ele>55.41</ele><time>2026-08-20T09:16:08Z</time></trkpt><trkpt lat="59.0967223048" lon="30.4768466949"><ele>57.34</ele><time>2026-08-20T09:16:17Z</time></trkpt><trkpt lat="59.0966784675" lon="30.4768652190"><ele>55.41</ele><time>2026-08-20T09:16:34Z</time></trkpt><trkpt lat="59.0965987556" lon="30.4768683203"><ele>55.41</ele><time>2026-08-20T09:16:46Z</time></trkpt><trkpt lat="59.0965115000" lon="30.4768753611"><ele>55.89</ele><time>2026-08-20T09:16:58Z</time></trkpt><trkpt lat="59.0963923093" lon="30.4769112356"><ele>55.41</ele><time>2026-08-20T09:17:13Z</time></trkpt><trkpt lat="59.0963234100" lon="30.4768827371"><ele>55.89</ele><time>2026-08-20T09:17:23Z</time></trkpt><trkpt lat="59.0962536726" lon="30.4769090563"><ele>55.41</ele><time>2026-08-20T09:17:34Z</time></trkpt><trkpt lat="59.0961675067" lon="30.4769067932"><ele>55.41</ele><time>2026-08-20T09:17:46Z</time></trkpt><trkpt lat="59.0961205680" lon="30.4769490380"><ele>55.41</ele><time>2026-08-20T09:17:57Z</time></trkpt><trkpt lat="59.0961318836" lon="30.4768938851"><ele>55.89</ele><time>2026-08-20T09:18:15Z</time></trkpt><trkpt lat="59.0960998647" lon="30.4768500477"><ele>55.41</ele><time>2026-08-20T09:18:38Z</time></trkpt><trkpt lat="59.0961086657" lon="30.4768973216"><ele>56.37</ele><time>2026-08-20T09:19:00Z</time></trkpt><trkpt lat="59.0961203165" lon="30.4770108126"><ele>55.89</ele><time>2026-08-20T09:19:19Z</time></trkpt><trkpt lat="59.0961053129" lon="30.4770485312"><ele>56.86</ele><time>2026-08-20T09:19:44Z</time></trkpt><trkpt lat="59.0961474739" lon="30.4769948870"><ele>55.89</ele><time>2026-08-20T09:20:04Z</time></trkpt><trkpt lat="59.0961456299" lon="30.4769869242"><ele>55.89</ele><time>2026-08-20T09:20:24Z</time></trkpt><trkpt lat="59.0961041395" lon="30.4770426638"><ele>55.89</ele><time>2026-08-20T09:20:37Z</time></trkpt><trkpt lat="59.0961330570" lon="30.4768543225"><ele>55.89</ele><time>2026-08-20T09:20:55Z</time></trkpt><trkpt lat="59.0961223282" lon="30.4768005945"><ele>56.37</ele><time>2026-08-20T09:21:05Z</time></trkpt><trkpt lat="59.0960653313" lon="30.4767933022"><ele>55.41</ele><time>2026-08-20T09:21:17Z</time></trkpt><trkpt lat="59.0960338991" lon="30.4766536597"><ele>55.89</ele><time>2026-08-20T09:21:29Z</time></trkpt><trkpt lat="59.0959735494" lon="30.4765259195"><ele>55.89</ele><time>2026-08-20T09:21:42Z</time></trkpt><trkpt lat="59.0959486552" lon="30.4763918091"><ele>55.41</ele><time>2026-08-20T09:21:54Z</time></trkpt><trkpt lat="59.0959161334" lon="30.4763332196"><ele>55.89</ele><time>2026-08-20T09:22:08Z</time></trkpt><trkpt lat="59.0959405247" lon="30.4763866123"><ele>56.37</ele><time>2026-08-20T09:22:30Z</time></trkpt><trkpt lat="59.0958974417" lon="30.4762863647"><ele>56.37</ele><time>2026-08-20T09:22:47Z</time></trkpt><trkpt lat="59.0958917420" lon="30.4762328882"><ele>56.37</ele><time>2026-08-20T09:22:52Z</time></trkpt><trkpt lat="59.0958683565" lon="30.4760957602"><ele>55.89</ele><time>2026-08-20T09:23:04Z</time></trkpt><trkpt lat="59.0958679374" lon="30.4759935010"><ele>56.37</ele><time>2026-08-20T09:23:15Z</time></trkpt><trkpt lat="59.0958524309" lon="30.4758742265"><ele>55.89</ele><time>2026-08-20T09:23:27Z</time></trkpt><trkpt lat="59.0957884770" lon="30.4757689498"><ele>55.89</ele><time>2026-08-20T09:23:39Z</time></trkpt><trkpt lat="59.0957883094" lon="30.4756782576"><ele>55.89</ele><time>2026-08-20T09:23:51Z</time></trkpt><trkpt lat="59.0957683604" lon="30.4756675288"><ele>55.89</ele><time>2026-08-20T09:24:05Z</time></trkpt><trkpt lat="59.0957801789" lon="30.4756183270"><ele>55.41</ele><time>2026-08-20T09:24:24Z</time></trkpt><trkpt lat="59.0957971942" lon="30.4756110348"><ele>55.41</ele><time>2026-08-20T09:24:49Z</time></trkpt><trkpt lat="59.0957939252" lon="30.4755752441"><ele>55.89</ele><time>2026-08-20T09:25:03Z</time></trkpt><trkpt lat="59.0957744792" lon="30.4755990487"><ele>55.89</ele><time>2026-08-20T09:25:24Z</time></trkpt><trkpt lat="59.0957945958" lon="30.4755436443"><ele>55.89</ele><time>2026-08-20T09:25:42Z</time></trkpt><trkpt lat="59.0957878903" lon="30.4755068477"><ele>55.89</ele><time>2026-08-20T09:25:52Z</time></trkpt><trkpt lat="59.0958137903" lon="30.4754052591"><ele>55.89</ele><time>2026-08-20T09:26:05Z</time></trkpt><trkpt lat="59.0958344936" lon="30.4752873257"><ele>55.89</ele><time>2026-08-20T09:26:20Z</time></trkpt><trkpt lat="59.0958430432" lon="30.4752046801"><ele>55.41</ele><time>2026-08-20T09:26:34Z</time></trkpt><trkpt lat="59.0958388522" lon="30.4750692286"><ele>55.41</ele><time>2026-08-20T09:26:49Z</time></trkpt><trkpt lat="59.0958438814" lon="30.4749783687"><ele>55.41</ele><time>2026-08-20T09:26:56Z</time></trkpt><trkpt lat="59.0958470665" lon="30.4748168495"><ele>55.41</ele><time>2026-08-20T09:27:09Z</time></trkpt><trkpt lat="59.0958482400" lon="30.4747118242"><ele>55.89</ele><time>2026-08-20T09:27:22Z</time></trkpt><trkpt lat="59.0958285425" lon="30.4745127540"><ele>55.41</ele><time>2026-08-20T09:27:37Z</time></trkpt><trkpt lat="59.0958817676" lon="30.4743486363"><ele>55.89</ele><time>2026-08-20T09:27:50Z</time></trkpt><trkpt lat="59.0958806779" lon="30.4742048867"><ele>55.41</ele><time>2026-08-20T09:28:04Z</time></trkpt><trkpt lat="59.0958933346" lon="30.4740827624"><ele>55.41</ele><time>2026-08-20T09:28:15Z</time></trkpt><trkpt lat="59.0959490743" lon="30.4739043117"><ele>55.41</ele><time>2026-08-20T09:28:31Z</time></trkpt><trkpt lat="59.0959553607" lon="30.4737029783"><ele>55.41</ele><time>2026-08-20T09:28:45Z</time></trkpt><trkpt lat="59.0958470665" lon="30.4734987114"><ele>55.41</ele><time>2026-08-20T09:29:01Z</time></trkpt><trkpt lat="59.0957921650" lon="30.4733880702"><ele>54.93</ele><time>2026-08-20T09:29:18Z</time></trkpt><trkpt lat="59.0957631636" lon="30.4733700491"><ele>54.93</ele><time>2026-08-20T09:29:35Z</time></trkpt><trkpt lat="59.0957811009" lon="30.4735033214"><ele>54.93</ele><time>2026-08-20T09:30:06Z</time></trkpt><trkpt lat="59.0957098547" lon="30.4732360225"><ele>55.41</ele><time>2026-08-20T09:30:22Z</time></trkpt><trkpt lat="59.0956810210" lon="30.4731687997"><ele>54.93</ele><time>2026-08-20T09:30:34Z</time></trkpt><trkpt lat="59.0956190787" lon="30.4730626848"><ele>55.41</ele><time>2026-08-20T09:30:48Z</time></trkpt><trkpt lat="59.0956282988" lon="30.4729221202"><ele>54.93</ele><time>2026-08-20T09:31:00Z</time></trkpt><trkpt lat="59.0956622455" lon="30.4728518799"><ele>54.93</ele><time>2026-08-20T09:31:11Z</time></trkpt><trkpt lat="59.0957225952" lon="30.4727291688"><ele>54.93</ele><time>2026-08-20T09:31:23Z</time></trkpt><trkpt lat="59.0956824459" lon="30.4726161808"><ele>55.41</ele><time>2026-08-20T09:31:36Z</time></trkpt><trkpt lat="59.0957173984" lon="30.4724550806"><ele>55.41</ele><time>2026-08-20T09:31:50Z</time></trkpt><trkpt lat="59.0957022272" lon="30.4722882807"><ele>55.41</ele><time>2026-08-20T09:32:03Z</time></trkpt><trkpt lat="59.0956991259" lon="30.4721505661"><ele>54.93</ele><time>2026-08-20T09:32:14Z</time></trkpt><trkpt lat="59.0956819430" lon="30.4720320459"><ele>54.93</ele><time>2026-08-20T09:32:26Z</time></trkpt><trkpt lat="59.0957397781" lon="30.4718787409"><ele>54.93</ele><time>2026-08-20T09:32:39Z</time></trkpt><trkpt lat="59.0957542788" lon="30.4717748892"><ele>55.41</ele><time>2026-08-20T09:32:52Z</time></trkpt><trkpt lat="59.0957930032" lon="30.4716592189"><ele>54.93</ele><time>2026-08-20T09:33:04Z</time></trkpt><trkpt lat="59.0958198253" lon="30.4714910779"><ele>54.93</ele><time>2026-08-20T09:33:19Z</time></trkpt><trkpt lat="59.0958447196" lon="30.4714932572"><ele>54.93</ele><time>2026-08-20T09:33:42Z</time></trkpt><trkpt lat="59.0958350804" lon="30.4714401998"><ele>54.93</ele><time>2026-08-20T09:34:00Z</time></trkpt><trkpt lat="59.0958266985" lon="30.4713249486"><ele>54.93</ele><time>2026-08-20T09:34:13Z</time></trkpt><trkpt lat="59.0957973618" lon="30.4712070990"><ele>54.93</ele><time>2026-08-20T09:34:28Z</time></trkpt><trkpt lat="59.0957418736" lon="30.4710867349"><ele>55.41</ele><time>2026-08-20T09:34:40Z</time></trkpt><trkpt lat="59.0956781711" lon="30.4710237868"><ele>55.41</ele><time>2026-08-20T09:34:53Z</time></trkpt><trkpt lat="59.0956783388" lon="30.4709017463"><ele>55.41</ele><time>2026-08-20T09:35:05Z</time></trkpt><trkpt lat="59.0956686158" lon="30.4708189331"><ele>55.41</ele><time>2026-08-20T09:35:15Z</time></trkpt><trkpt lat="59.0956479125" lon="30.4706659634"><ele>55.41</ele><time>2026-08-20T09:35:28Z</time></trkpt><trkpt lat="59.0956132952" lon="30.4705557413"><ele>55.41</ele><time>2026-08-20T09:35:38Z</time></trkpt><trkpt lat="59.0956562106" lon="30.4703893606"><ele>55.41</ele><time>2026-08-20T09:35:52Z</time></trkpt><trkpt lat="59.0956328250" lon="30.4702306911"><ele>54.93</ele><time>2026-08-20T09:36:06Z</time></trkpt><trkpt lat="59.0955886524" lon="30.4700517375"><ele>54.93</ele><time>2026-08-20T09:36:18Z</time></trkpt><trkpt lat="59.0955682844" lon="30.4698766395"><ele>54.93</ele><time>2026-08-20T09:36:31Z</time></trkpt><trkpt lat="59.0955503471" lon="30.4696851969"><ele>54.93</ele><time>2026-08-20T09:36:45Z</time></trkpt><trkpt lat="59.0955416299" lon="30.4695564508"><ele>54.93</ele><time>2026-08-20T09:36:57Z</time></trkpt><trkpt lat="59.0955240279" lon="30.4693752341"><ele>54.93</ele><time>2026-08-20T09:37:11Z</time></trkpt><trkpt lat="59.0955071803" lon="30.4691337515"><ele>54.93</ele><time>2026-08-20T09:37:26Z</time></trkpt><trkpt lat="59.0955233574" lon="30.4689637665"><ele>54.93</ele><time>2026-08-20T09:37:38Z</time></trkpt><trkpt lat="59.0955309849" lon="30.4687483516"><ele>55.41</ele><time>2026-08-20T09:37:52Z</time></trkpt><trkpt lat="59.0955443121" lon="30.4685815517"><ele>54.93</ele><time>2026-08-20T09:38:05Z</time></trkpt><trkpt lat="59.0955108684" lon="30.4684243910"><ele>54.45</ele><time>2026-08-20T09:38:16Z</time></trkpt><trkpt lat="59.0954970382" lon="30.4682971537"><ele>54.93</ele><time>2026-08-20T09:38:29Z</time></trkpt><trkpt lat="59.0954938531" lon="30.4679752886"><ele>54.93</ele><time>2026-08-20T09:38:45Z</time></trkpt><trkpt lat="59.0954639297" lon="30.4677882884"><ele>54.93</ele><time>2026-08-20T09:39:00Z</time></trkpt><trkpt lat="59.0954307374" lon="30.4676315468"><ele>54.93</ele><time>2026-08-20T09:39:14Z</time></trkpt><trkpt lat="59.0953699686" lon="30.4675745498"><ele>54.45</ele><time>2026-08-20T09:39:29Z</time></trkpt><trkpt lat="59.0952658653" lon="30.4676173814"><ele>54.45</ele><time>2026-08-20T09:39:50Z</time></trkpt><trkpt lat="59.0951306652" lon="30.4676649906"><ele>54.45</ele><time>2026-08-20T09:40:08Z</time></trkpt><trkpt lat="59.0949852392" lon="30.4677095823"><ele>54.93</ele><time>2026-08-20T09:40:22Z</time></trkpt><trkpt lat="59.0948466863" lon="30.4677204788"><ele>54.45</ele><time>2026-08-20T09:40:38Z</time></trkpt><trkpt lat="59.0947664715" lon="30.4677540064"><ele>54.93</ele><time>2026-08-20T09:40:53Z</time></trkpt><trkpt lat="59.0947544854" lon="30.4678580258"><ele>54.45</ele><time>2026-08-20T09:41:21Z</time></trkpt><trkpt lat="59.0946697444" lon="30.4679051321"><ele>54.45</ele><time>2026-08-20T09:41:42Z</time></trkpt><trkpt lat="59.0946448501" lon="30.4679411743"><ele>54.45</ele><time>2026-08-20T09:41:57Z</time></trkpt><trkpt lat="59.0946632065" lon="30.4680995084"><ele>54.45</ele><time>2026-08-20T09:42:12Z</time></trkpt><trkpt lat="59.0946700796" lon="30.4683058709"><ele>54.93</ele><time>2026-08-20T09:42:26Z</time></trkpt><trkpt lat="59.0947187785" lon="30.4685579985"><ele>54.45</ele><time>2026-08-20T09:42:44Z</time></trkpt><trkpt lat="59.0948074590" lon="30.4687706474"><ele>54.93</ele><time>2026-08-20T09:42:56Z</time></trkpt><trkpt lat="59.0948688984" lon="30.4689346813"><ele>54.93</ele><time>2026-08-20T09:43:12Z</time></trkpt><trkpt lat="59.0948386397" lon="30.4691314884"><ele>55.41</ele><time>2026-08-20T09:43:26Z</time></trkpt><trkpt lat="59.0948338620" lon="30.4693812691"><ele>54.93</ele><time>2026-08-20T09:43:41Z</time></trkpt><trkpt lat="59.0948144160" lon="30.4695948400"><ele>54.93</ele><time>2026-08-20T09:43:55Z</time></trkpt><trkpt lat="59.0947951376" lon="30.4698068183"><ele>54.93</ele><time>2026-08-20T09:44:08Z</time></trkpt><trkpt lat="59.0947494563" lon="30.4699847661"><ele>54.93</ele><time>2026-08-20T09:44:19Z</time></trkpt><trkpt lat="59.0947513841" lon="30.4701252468"><ele>54.93</ele><time>2026-08-20T09:44:32Z</time></trkpt><trkpt lat="59.0947362129" lon="30.4702343792"><ele>54.93</ele><time>2026-08-20T09:44:45Z</time></trkpt><trkpt lat="59.0947510488" lon="30.4703658912"><ele>55.41</ele><time>2026-08-20T09:44:57Z</time></trkpt><trkpt lat="59.0947369672" lon="30.4704163503"><ele>54.93</ele><time>2026-08-20T09:45:10Z</time></trkpt><trkpt lat="59.0947400685" lon="30.4705496226"><ele>55.41</ele><time>2026-08-20T09:45:21Z</time></trkpt><trkpt lat="59.0947060380" lon="30.4706819728"><ele>55.41</ele><time>2026-08-20T09:45:32Z</time></trkpt><trkpt lat="59.0947001707" lon="30.4708155803"><ele>55.41</ele><time>2026-08-20T09:45:46Z</time></trkpt><trkpt lat="59.0947301779" lon="30.4709721543"><ele>55.41</ele><time>2026-08-20T09:45:59Z</time></trkpt><trkpt lat="59.0947670583" lon="30.4710510280"><ele>55.41</ele><time>2026-08-20T09:46:12Z</time></trkpt><trkpt lat="59.0947833192" lon="30.4711380322"><ele>55.41</ele><time>2026-08-20T09:46:25Z</time></trkpt><trkpt lat="59.0947887674" lon="30.4712636769"><ele>55.41</ele><time>2026-08-20T09:46:37Z</time></trkpt><trkpt lat="59.0947568323" lon="30.4713112023"><ele>55.41</ele><time>2026-08-20T09:46:46Z</time></trkpt><trkpt lat="59.0947555751" lon="30.4714058340"><ele>55.41</ele><time>2026-08-20T09:46:55Z</time></trkpt><trkpt lat="59.0947523899" lon="30.4715847038"><ele>55.41</ele><time>2026-08-20T09:47:08Z</time></trkpt><trkpt lat="59.0947927069" lon="30.4717080854"><ele>55.41</ele><time>2026-08-20T09:47:19Z</time></trkpt><trkpt lat="59.0948512126" lon="30.4718193971"><ele>54.93</ele><time>2026-08-20T09:47:32Z</time></trkpt><trkpt lat="59.0948940441" lon="30.4719656613"><ele>55.41</ele><time>2026-08-20T09:47:45Z</time></trkpt><trkpt lat="59.0949377138" lon="30.4721710179"><ele>55.41</ele><time>2026-08-20T09:47:58Z</time></trkpt><trkpt lat="59.0949324332" lon="30.4722923040"><ele>54.93</ele><time>2026-08-20T09:48:09Z</time></trkpt><trkpt lat="59.0949817188" lon="30.4723713454"><ele>54.93</ele><time>2026-08-20T09:48:19Z</time></trkpt><trkpt lat="59.0950015839" lon="30.4725175258"><ele>54.93</ele><time>2026-08-20T09:48:33Z</time></trkpt><trkpt lat="59.0949866641" lon="30.4725937173"><ele>54.93</ele><time>2026-08-20T09:48:43Z</time></trkpt><trkpt lat="59.0950061940" lon="30.4724834953"><ele>54.93</ele><time>2026-08-20T09:48:59Z</time></trkpt><trkpt lat="59.0950115584" lon="30.4724605288"><ele>55.41</ele><time>2026-08-20T09:49:11Z</time></trkpt><trkpt lat="59.0950202756" lon="30.4726179410"><ele>54.45</ele><time>2026-08-20T09:49:24Z</time></trkpt><trkpt lat="59.0950541385" lon="30.4727461003"><ele>54.93</ele><time>2026-08-20T09:49:38Z</time></trkpt><trkpt lat="59.0951159969" lon="30.4728559032"><ele>54.93</ele><time>2026-08-20T09:49:51Z</time></trkpt><trkpt lat="59.0951157454" lon="30.4730287381"><ele>54.93</ele><time>2026-08-20T09:50:05Z</time></trkpt><trkpt lat="59.0951325092" lon="30.4731416423"><ele>54.93</ele><time>2026-08-20T09:50:18Z</time></trkpt><trkpt lat="59.0951112192" lon="30.4732856434"><ele>54.93</ele><time>2026-08-20T09:50:31Z</time></trkpt><trkpt lat="59.0951621812" lon="30.4733967036"><ele>54.93</ele><time>2026-08-20T09:50:44Z</time></trkpt><trkpt lat="59.0951641090" lon="30.4735635873"><ele>54.93</ele><time>2026-08-20T09:50:57Z</time></trkpt><trkpt lat="59.0951277316" lon="30.4736966081"><ele>55.41</ele><time>2026-08-20T09:51:10Z</time></trkpt><trkpt lat="59.0951036755" lon="30.4738185648"><ele>54.93</ele><time>2026-08-20T09:51:23Z</time></trkpt><trkpt lat="59.0951548889" lon="30.4738995340"><ele>54.93</ele><time>2026-08-20T09:51:35Z</time></trkpt><trkpt lat="59.0951916855" lon="30.4740819242"><ele>55.41</ele><time>2026-08-20T09:51:48Z</time></trkpt><trkpt lat="59.0952199325" lon="30.4742848501"><ele>54.93</ele><time>2026-08-20T09:52:01Z</time></trkpt><trkpt lat="59.0952236205" lon="30.4744699225"><ele>54.93</ele><time>2026-08-20T09:52:16Z</time></trkpt><trkpt lat="59.0952319186" lon="30.4745984171"><ele>55.41</ele><time>2026-08-20T09:52:27Z</time></trkpt><trkpt lat="59.0952571481" lon="30.4748301767"><ele>54.93</ele><time>2026-08-20T09:52:38Z</time></trkpt><trkpt lat="59.0952386241" lon="30.4750103038"><ele>54.93</ele><time>2026-08-20T09:52:51Z</time></trkpt><trkpt lat="59.0952201840" lon="30.4751322605"><ele>54.93</ele><time>2026-08-20T09:53:05Z</time></trkpt><trkpt lat="59.0952091198" lon="30.4751719907"><ele>54.93</ele><time>2026-08-20T09:53:08Z</time></trkpt><trkpt lat="59.0952080302" lon="30.4753469210"><ele>55.41</ele><time>2026-08-20T09:53:19Z</time></trkpt><trkpt lat="59.0951988101" lon="30.4754529521"><ele>55.41</ele><time>2026-08-20T09:53:31Z</time></trkpt><trkpt lat="59.0952145681" lon="30.4756282177"><ele>55.41</ele><time>2026-08-20T09:53:42Z</time></trkpt><trkpt lat="59.0952128079" lon="30.4758105241"><ele>55.41</ele><time>2026-08-20T09:53:56Z</time></trkpt><trkpt lat="59.0951926075" lon="30.4759166390"><ele>55.41</ele><time>2026-08-20T09:54:13Z</time></trkpt><trkpt lat="59.0952404682" lon="30.4760828521"><ele>55.41</ele><time>2026-08-20T09:54:26Z</time></trkpt><trkpt lat="59.0952388756" lon="30.4762867000"><ele>55.41</ele><time>2026-08-20T09:54:40Z</time></trkpt><trkpt lat="59.0952508617" lon="30.4764391668"><ele>55.41</ele><time>2026-08-20T09:54:51Z</time></trkpt><trkpt lat="59.0952322539" lon="30.4765886161"><ele>55.41</ele><time>2026-08-20T09:55:03Z</time></trkpt><trkpt lat="59.0952750854" lon="30.4767222237"><ele>55.89</ele><time>2026-08-20T09:55:16Z</time></trkpt><trkpt lat="59.0952889156" lon="30.4768039472"><ele>55.41</ele><time>2026-08-20T09:55:27Z</time></trkpt><trkpt lat="59.0953166597" lon="30.4768896103"><ele>55.89</ele><time>2026-08-20T09:55:39Z</time></trkpt><trkpt lat="59.0953372791" lon="30.4769648798"><ele>55.41</ele><time>2026-08-20T09:55:53Z</time></trkpt><trkpt lat="59.0953288972" lon="30.4769484513"><ele>55.89</ele><time>2026-08-20T09:56:12Z</time></trkpt><trkpt lat="59.0953225270" lon="30.4769290891"><ele>55.89</ele><time>2026-08-20T09:56:31Z</time></trkpt><trkpt lat="59.0953301545" lon="30.4768538196"><ele>56.37</ele><time>2026-08-20T09:57:04Z</time></trkpt><trkpt lat="59.0952787735" lon="30.4770141654"><ele>55.41</ele><time>2026-08-20T09:57:16Z</time></trkpt><trkpt lat="59.0952226147" lon="30.4770256486"><ele>55.89</ele><time>2026-08-20T09:57:28Z</time></trkpt><trkpt lat="59.0951305814" lon="30.4770362098"><ele>55.41</ele><time>2026-08-20T09:57:42Z</time></trkpt><trkpt lat="59.0950632747" lon="30.4770041071"><ele>55.89</ele><time>2026-08-20T09:57:54Z</time></trkpt><trkpt lat="59.0949859936" lon="30.4770239722"><ele>56.37</ele><time>2026-08-20T09:58:06Z</time></trkpt><trkpt lat="59.0949721634" lon="30.4770268220"><ele>56.37</ele><time>2026-08-20T09:58:08Z</time></trkpt><trkpt lat="59.0948788729" lon="30.4770530574"><ele>55.89</ele><time>2026-08-20T09:58:21Z</time></trkpt><trkpt lat="59.0948103089" lon="30.4771032650"><ele>55.89</ele><time>2026-08-20T09:58:33Z</time></trkpt><trkpt lat="59.0947137494" lon="30.4770908598"><ele>55.89</ele><time>2026-08-20T09:58:46Z</time></trkpt><trkpt lat="59.0947075468" lon="30.4770494532"><ele>55.41</ele><time>2026-08-20T09:59:02Z</time></trkpt><trkpt lat="59.0947151743" lon="30.4769765306"><ele>56.37</ele><time>2026-08-20T09:59:35Z</time></trkpt><trkpt lat="59.0947020147" lon="30.4769143369"><ele>55.89</ele><time>2026-08-20T09:59:48Z</time></trkpt><trkpt lat="59.0946737677" lon="30.4767688271"><ele>55.89</ele><time>2026-08-20T10:00:00Z</time></trkpt><trkpt lat="59.0946835745" lon="30.4766522348"><ele>55.89</ele><time>2026-08-20T10:00:12Z</time></trkpt><trkpt lat="59.0946670622" lon="30.4764689226"><ele>56.37</ele><time>2026-08-20T10:00:25Z</time></trkpt><trkpt lat="59.0946232248" lon="30.4763490614"><ele>56.37</ele><time>2026-08-20T10:00:37Z</time></trkpt><trkpt lat="59.0945724305" lon="30.4762408510"><ele>56.37</ele><time>2026-08-20T10:00:48Z</time></trkpt><trkpt lat="59.0945251565" lon="30.4761089198"><ele>56.37</ele><time>2026-08-20T10:00:59Z</time></trkpt><trkpt lat="59.0945505537" lon="30.4759601410"><ele>56.37</ele><time>2026-08-20T10:01:12Z</time></trkpt><trkpt lat="59.0945440996" lon="30.4758170620"><ele>56.37</ele><time>2026-08-20T10:01:23Z</time></trkpt><trkpt lat="59.0945684072" lon="30.4756332468"><ele>56.37</ele><time>2026-08-20T10:01:37Z</time></trkpt><trkpt lat="59.0945946425" lon="30.4755250365"><ele>56.37</ele><time>2026-08-20T10:01:51Z</time></trkpt><trkpt lat="59.0945617855" lon="30.4753801972"><ele>55.89</ele><time>2026-08-20T10:02:03Z</time></trkpt><trkpt lat="59.0945360530" lon="30.4752153251"><ele>56.37</ele><time>2026-08-20T10:02:16Z</time></trkpt><trkpt lat="59.0945024416" lon="30.4750019219"><ele>56.37</ele><time>2026-08-20T10:02:31Z</time></trkpt><trkpt lat="59.0944434330" lon="30.4748668894"><ele>56.37</ele><time>2026-08-20T10:02:45Z</time></trkpt><trkpt lat="59.0944489650" lon="30.4747436754"><ele>56.86</ele><time>2026-08-20T10:02:59Z</time></trkpt><trkpt lat="59.0944605321" lon="30.4746439308"><ele>56.37</ele><time>2026-08-20T10:03:14Z</time></trkpt><trkpt lat="59.0944581851" lon="30.4745880235"><ele>55.89</ele><time>2026-08-20T10:03:31Z</time></trkpt><trkpt lat="59.0944342967" lon="30.4746156000"><ele>56.37</ele><time>2026-08-20T10:03:45Z</time></trkpt><trkpt lat="59.0944667347" lon="30.4745586030"><ele>56.37</ele><time>2026-08-20T10:04:01Z</time></trkpt><trkpt lat="59.0944213048" lon="30.4743358120"><ele>56.37</ele><time>2026-08-20T10:04:15Z</time></trkpt><trkpt lat="59.0943620447" lon="30.4741380829"><ele>56.37</ele><time>2026-08-20T10:04:28Z</time></trkpt><trkpt lat="59.0943299420" lon="30.4740704410"><ele>56.86</ele><time>2026-08-20T10:04:47Z</time></trkpt><trkpt lat="59.0943174530" lon="30.4738349933"><ele>56.37</ele><time>2026-08-20T10:05:01Z</time></trkpt><trkpt lat="59.0942353942" lon="30.4736601468"><ele>56.86</ele><time>2026-08-20T10:05:15Z</time></trkpt><trkpt lat="59.0942467097" lon="30.4734486714"><ele>56.86</ele><time>2026-08-20T10:05:30Z</time></trkpt><trkpt lat="59.0942018665" lon="30.4732327536"><ele>56.86</ele><time>2026-08-20T10:05:43Z</time></trkpt><trkpt lat="59.0941896290" lon="30.4731246270"><ele>56.86</ele><time>2026-08-20T10:05:55Z</time></trkpt><trkpt lat="59.0941737872" lon="30.4729413986"><ele>56.37</ele><time>2026-08-20T10:06:08Z</time></trkpt><trkpt lat="59.0942268446" lon="30.4727652948"><ele>57.34</ele><time>2026-08-20T10:06:20Z</time></trkpt><trkpt lat="59.0942642279" lon="30.4725517239"><ele>56.37</ele><time>2026-08-20T10:06:33Z</time></trkpt><trkpt lat="59.0942799859" lon="30.4723938089"><ele>56.86</ele><time>2026-08-20T10:06:44Z</time></trkpt><trkpt lat="59.0942669101" lon="30.4722871073"><ele>56.86</ele><time>2026-08-20T10:06:56Z</time></trkpt><trkpt lat="59.0942525771" lon="30.4721546732"><ele>56.86</ele><time>2026-08-20T10:07:08Z</time></trkpt><trkpt lat="59.0942731965" lon="30.4720271006"><ele>56.37</ele><time>2026-08-20T10:07:22Z</time></trkpt><trkpt lat="59.0942684188" lon="30.4718814231"><ele>56.37</ele><time>2026-08-20T10:07:36Z</time></trkpt><trkpt lat="59.0942646470" lon="30.4717843607"><ele>56.86</ele><time>2026-08-20T10:07:50Z</time></trkpt><trkpt lat="59.0942906309" lon="30.4717108514"><ele>56.37</ele><time>2026-08-20T10:08:01Z</time></trkpt><trkpt lat="59.0943234880" lon="30.4715618212"><ele>56.37</ele><time>2026-08-20T10:08:14Z</time></trkpt><trkpt lat="59.0943192132" lon="30.4713632539"><ele>56.37</ele><time>2026-08-20T10:08:28Z</time></trkpt><trkpt lat="59.0943040419" lon="30.4713386949"><ele>56.37</ele><time>2026-08-20T10:08:31Z</time></trkpt><trkpt lat="59.0942900442" lon="30.4712076019"><ele>56.37</ele><time>2026-08-20T10:08:43Z</time></trkpt><trkpt lat="59.0943083167" lon="30.4710651096"><ele>56.37</ele><time>2026-08-20T10:08:55Z</time></trkpt><trkpt lat="59.0942526609" lon="30.4709557258"><ele>56.37</ele><time>2026-08-20T10:09:07Z</time></trkpt><trkpt lat="59.0942045487" lon="30.4708299134"><ele>56.37</ele><time>2026-08-20T10:09:19Z</time></trkpt><trkpt lat="59.0941455401" lon="30.4707976431"><ele>56.37</ele><time>2026-08-20T10:09:30Z</time></trkpt><trkpt lat="59.0941423550" lon="30.4706537258"><ele>56.37</ele><time>2026-08-20T10:09:44Z</time></trkpt><trkpt lat="59.0940666664" lon="30.4705812223"><ele>56.37</ele><time>2026-08-20T10:09:55Z</time></trkpt><trkpt lat="59.0940623917" lon="30.4704800528"><ele>56.37</ele><time>2026-08-20T10:10:08Z</time></trkpt><trkpt lat="59.0940483939" lon="30.4703965690"><ele>55.89</ele><time>2026-08-20T10:10:22Z</time></trkpt><trkpt lat="59.0940807480" lon="30.4702297691"><ele>55.89</ele><time>2026-08-20T10:10:34Z</time></trkpt><trkpt lat="59.0940730367" lon="30.4700980894"><ele>55.89</ele><time>2026-08-20T10:10:45Z</time></trkpt><trkpt lat="59.0940896329" lon="30.4700410087"><ele>55.89</ele><time>2026-08-20T10:10:57Z</time></trkpt><trkpt lat="59.0940706898" lon="30.4699495621"><ele>55.89</ele><time>2026-08-20T10:11:13Z</time></trkpt><trkpt lat="59.0940074902" lon="30.4698269349"><ele>55.89</ele><time>2026-08-20T10:11:25Z</time></trkpt><trkpt lat="59.0940294508" lon="30.4696201533"><ele>55.89</ele><time>2026-08-20T10:11:38Z</time></trkpt><trkpt lat="59.0940425266" lon="30.4693884775"><ele>55.41</ele><time>2026-08-20T10:11:52Z</time></trkpt><trkpt lat="59.0940984339" lon="30.4693293851"><ele>55.41</ele><time>2026-08-20T10:12:03Z</time></trkpt><trkpt lat="59.0941377450" lon="30.4691334162"><ele>54.93</ele><time>2026-08-20T10:12:19Z</time></trkpt><trkpt lat="59.0941905510" lon="30.4689801112"><ele>55.41</ele><time>2026-08-20T10:12:39Z</time></trkpt><trkpt lat="59.0941936523" lon="30.4688383732"><ele>55.41</ele><time>2026-08-20T10:12:52Z</time></trkpt><trkpt lat="59.0942273475" lon="30.4686765186"><ele>55.41</ele><time>2026-08-20T10:13:07Z</time></trkpt><trkpt lat="59.0942733642" lon="30.4684412386"><ele>54.93</ele><time>2026-08-20T10:13:21Z</time></trkpt><trkpt lat="59.0942447819" lon="30.4682310205"><ele>54.93</ele><time>2026-08-20T10:13:34Z</time></trkpt><trkpt lat="59.0942623001" lon="30.4680141807"><ele>54.93</ele><time>2026-08-20T10:13:48Z</time></trkpt><trkpt lat="59.0942588635" lon="30.4678748734"><ele>54.93</ele><time>2026-08-20T10:14:01Z</time></trkpt><trkpt lat="59.0941841807" lon="30.4678280186"><ele>55.41</ele><time>2026-08-20T10:14:16Z</time></trkpt><trkpt lat="59.0941877849" lon="30.4679217283"><ele>54.93</ele><time>2026-08-20T10:14:45Z</time></trkpt><trkpt lat="59.0941095818" lon="30.4678177927"><ele>54.93</ele><time>2026-08-20T10:15:02Z</time></trkpt><trkpt lat="59.0939851943" lon="30.4678680003"><ele>54.93</ele><time>2026-08-20T10:15:16Z</time></trkpt><trkpt lat="59.0938842762" lon="30.4679090716"><ele>54.93</ele><time>2026-08-20T10:15:30Z</time></trkpt><trkpt lat="59.0938282851" lon="30.4679064732"><ele>54.45</ele><time>2026-08-20T10:15:42Z</time></trkpt><trkpt lat="59.0937673487" lon="30.4679296911"><ele>54.93</ele><time>2026-08-20T10:15:55Z</time></trkpt><trkpt lat="59.0936959349" lon="30.4679793958"><ele>55.41</ele><time>2026-08-20T10:16:07Z</time></trkpt><trkpt lat="59.0935711283" lon="30.4679593630"><ele>54.45</ele><time>2026-08-20T10:16:25Z</time></trkpt><trkpt lat="59.0936112776" lon="30.4679648951"><ele>54.45</ele><time>2026-08-20T10:16:54Z</time></trkpt><trkpt lat="59.0935525205" lon="30.4680438526"><ele>54.93</ele><time>2026-08-20T10:17:08Z</time></trkpt><trkpt lat="59.0936076734" lon="30.4682625365"><ele>54.93</ele><time>2026-08-20T10:17:21Z</time></trkpt><trkpt lat="59.0935548674" lon="30.4683885165"><ele>54.45</ele><time>2026-08-20T10:17:34Z</time></trkpt><trkpt lat="59.0934916679" lon="30.4685402289"><ele>54.93</ele><time>2026-08-20T10:17:49Z</time></trkpt><trkpt lat="59.0934576374" lon="30.4686698131"><ele>54.93</ele><time>2026-08-20T10:18:02Z</time></trkpt><trkpt lat="59.0934140515" lon="30.4689154029"><ele>54.93</ele><time>2026-08-20T10:18:18Z</time></trkpt><trkpt lat="59.0933974553" lon="30.4689866491"><ele>54.93</ele><time>2026-08-20T10:18:30Z</time></trkpt><trkpt lat="59.0933454037" lon="30.4691102821"><ele>54.45</ele><time>2026-08-20T10:18:45Z</time></trkpt><trkpt lat="59.0933110379" lon="30.4692334961"><ele>54.45</ele><time>2026-08-20T10:18:56Z</time></trkpt><trkpt lat="59.0932604950" lon="30.4693800956"><ele>54.45</ele><time>2026-08-20T10:19:09Z</time></trkpt><trkpt lat="59.0932438150" lon="30.4695047345"><ele>54.45</ele><time>2026-08-20T10:19:22Z</time></trkpt><trkpt lat="59.0932338405" lon="30.4696342349"><ele>53.97</ele><time>2026-08-20T10:19:33Z</time></trkpt><trkpt lat="59.0932280570" lon="30.4697941616"><ele>53.49</ele><time>2026-08-20T10:19:47Z</time></trkpt><trkpt lat="59.0932398755" lon="30.4699074011"><ele>53.97</ele><time>2026-08-20T10:19:59Z</time></trkpt><trkpt lat="59.0932928491" lon="30.4699464608"><ele>53.97</ele><time>2026-08-20T10:20:11Z</time></trkpt><trkpt lat="59.0933076851" lon="30.4701021127"><ele>53.97</ele><time>2026-08-20T10:20:24Z</time></trkpt><trkpt lat="59.0933609102" lon="30.4701999296"><ele>53.49</ele><time>2026-08-20T10:20:37Z</time></trkpt><trkpt lat="59.0933645144" lon="30.4703416675"><ele>53.01</ele><time>2026-08-20T10:20:52Z</time></trkpt><trkpt lat="59.0934005566" lon="30.4704946373"><ele>53.49</ele><time>2026-08-20T10:21:05Z</time></trkpt><trkpt lat="59.0934167337" lon="30.4706903547"><ele>53.01</ele><time>2026-08-20T10:21:19Z</time></trkpt><trkpt lat="59.0934800170" lon="30.4707971402"><ele>53.01</ele><time>2026-08-20T10:21:30Z</time></trkpt><trkpt lat="59.0935108624" lon="30.4709265567"><ele>53.01</ele><time>2026-08-20T10:21:41Z</time></trkpt><trkpt lat="59.0935445577" lon="30.4710960388"><ele>53.01</ele><time>2026-08-20T10:21:55Z</time></trkpt><trkpt lat="59.0935323201" lon="30.4712498467"><ele>52.53</ele><time>2026-08-20T10:22:08Z</time></trkpt><trkpt lat="59.0935599804" lon="30.4714400321"><ele>52.53</ele><time>2026-08-20T10:22:23Z</time></trkpt><trkpt lat="59.0936021414" lon="30.4715968575"><ele>52.53</ele><time>2026-08-20T10:22:37Z</time></trkpt><trkpt lat="59.0935947653" lon="30.4716383480"><ele>52.53</ele><time>2026-08-20T10:22:42Z</time></trkpt><trkpt lat="59.0935660992" lon="30.4718230013"><ele>52.53</ele><time>2026-08-20T10:22:55Z</time></trkpt><trkpt lat="59.0935647581" lon="30.4718634021"><ele>49.16</ele><time>2026-08-20T10:22:58Z</time></trkpt><trkpt lat="59.0935696196" lon="30.4718686827"><ele>49.16</ele><time>2026-08-20T10:22:59Z</time></trkpt><trkpt lat="59.0935632493" lon="30.4720022064"><ele>52.53</ele><time>2026-08-20T10:23:09Z</time></trkpt><trkpt lat="59.0935591422" lon="30.4720068164"><ele>52.05</ele><time>2026-08-20T10:23:10Z</time></trkpt><trkpt lat="59.0935541969" lon="30.4720089957"><ele>52.53</ele><time>2026-08-20T10:23:11Z</time></trkpt><trkpt lat="59.0935331583" lon="30.4721098300"><ele>52.53</ele><time>2026-08-20T10:23:21Z</time></trkpt><trkpt lat="59.0935300570" lon="30.4721576907"><ele>52.05</ele><time>2026-08-20T10:23:24Z</time></trkpt><trkpt lat="59.0935373493" lon="30.4722849280"><ele>52.05</ele><time>2026-08-20T10:23:37Z</time></trkpt><trkpt lat="59.0936045721" lon="30.4725030251"><ele>52.05</ele><time>2026-08-20T10:23:50Z</time></trkpt><trkpt lat="59.0935603995" lon="30.4726852477"><ele>51.57</ele><time>2026-08-20T10:24:03Z</time></trkpt><trkpt lat="59.0935431328" lon="30.4728631955"><ele>51.57</ele><time>2026-08-20T10:24:15Z</time></trkpt><trkpt lat="59.0934930090" lon="30.4731021635"><ele>51.57</ele><time>2026-08-20T10:24:28Z</time></trkpt><trkpt lat="59.0934820287" lon="30.4733475856"><ele>51.57</ele><time>2026-08-20T10:24:42Z</time></trkpt><trkpt lat="59.0934665222" lon="30.4735366814"><ele>51.57</ele><time>2026-08-20T10:24:56Z</time></trkpt><trkpt lat="59.0935156401" lon="30.4735172354"><ele>50.61</ele><time>2026-08-20T10:25:13Z</time></trkpt><trkpt lat="59.0935101081" lon="30.4735586420"><ele>51.09</ele><time>2026-08-20T10:25:43Z</time></trkpt><trkpt lat="59.0933858883" lon="30.4733896628"><ele>50.61</ele><time>2026-08-20T10:26:08Z</time></trkpt><trkpt lat="59.0934557095" lon="30.4736224283"><ele>51.09</ele><time>2026-08-20T10:26:44Z</time></trkpt><trkpt lat="59.0934438910" lon="30.4735205043"><ele>50.13</ele><time>2026-08-20T10:27:09Z</time></trkpt><trkpt lat="59.0934505966" lon="30.4735023994"><ele>51.09</ele><time>2026-08-20T10:27:37Z</time></trkpt><trkpt lat="59.0935027320" lon="30.4735816922"><ele>51.09</ele><time>2026-08-20T10:28:10Z</time></trkpt><trkpt lat="59.0934706293" lon="30.4737017211"><ele>51.09</ele><time>2026-08-20T10:28:36Z</time></trkpt><trkpt lat="59.0934177395" lon="30.4737503361"><ele>51.57</ele><time>2026-08-20T10:29:00Z</time></trkpt><trkpt lat="59.0934623312" lon="30.4738363344"><ele>51.09</ele><time>2026-08-20T10:29:22Z</time></trkpt><trkpt lat="59.0935341641" lon="30.4735613242"><ele>51.57</ele><time>2026-08-20T10:29:46Z</time></trkpt><trkpt lat="59.0935046598" lon="30.4735928401"><ele>52.05</ele><time>2026-08-20T10:30:16Z</time></trkpt><trkpt lat="59.0934902430" lon="30.4737570416"><ele>52.53</ele><time>2026-08-20T10:30:46Z</time></trkpt><trkpt lat="59.0935258660" lon="30.4737081751"><ele>53.01</ele><time>2026-08-20T10:31:16Z</time></trkpt><trkpt lat="59.0935231000" lon="30.4737546109"><ele>53.49</ele><time>2026-08-20T10:31:50Z</time></trkpt><trkpt lat="59.0934683662" lon="30.4737984482"><ele>53.97</ele><time>2026-08-20T10:32:24Z</time></trkpt><trkpt lat="59.0934889857" lon="30.4736155551"><ele>53.49</ele><time>2026-08-20T10:33:00Z</time></trkpt><trkpt lat="59.0935088508" lon="30.4735811055"><ele>54.45</ele><time>2026-08-20T10:33:36Z</time></trkpt><trkpt lat="59.0934920870" lon="30.4736117832"><ele>54.93</ele><time>2026-08-20T10:34:11Z</time></trkpt><trkpt lat="59.0934672765" lon="30.4736604821"><ele>55.41</ele><time>2026-08-20T10:34:43Z</time></trkpt><trkpt lat="59.0934569668" lon="30.4735022318"><ele>55.41</ele><time>2026-08-20T10:35:06Z</time></trkpt><trkpt lat="59.0934889857" lon="30.4735145532"><ele>55.89</ele><time>2026-08-20T10:35:29Z</time></trkpt><trkpt lat="59.0935448091" lon="30.4736262839"><ele>55.89</ele><time>2026-08-20T10:35:53Z</time></trkpt><trkpt lat="59.0936051589" lon="30.4738453031"><ele>55.89</ele><time>2026-08-20T10:36:08Z</time></trkpt><trkpt lat="59.0935892332" lon="30.4741145298"><ele>56.37</ele><time>2026-08-20T10:36:23Z</time></trkpt><trkpt lat="59.0936801769" lon="30.4742355645"><ele>55.89</ele><time>2026-08-20T10:36:36Z</time></trkpt><trkpt lat="59.0937800054" lon="30.4742921423"><ele>55.89</ele><time>2026-08-20T10:36:51Z</time></trkpt><trkpt lat="59.0938793309" lon="30.4744030349"><ele>55.41</ele><time>2026-08-20T10:37:07Z</time></trkpt><trkpt lat="59.0939816739" lon="30.4745845031"><ele>55.89</ele><time>2026-08-20T10:37:20Z</time></trkpt><trkpt lat="59.0940236673" lon="30.4748393130"><ele>55.41</ele><time>2026-08-20T10:37:37Z</time></trkpt><trkpt lat="59.0940203145" lon="30.4749529716"><ele>55.89</ele><time>2026-08-20T10:37:48Z</time></trkpt><trkpt lat="59.0939862840" lon="30.4751898441"><ele>55.89</ele><time>2026-08-20T10:38:01Z</time></trkpt><trkpt lat="59.0940358210" lon="30.4753706418"><ele>55.89</ele><time>2026-08-20T10:38:14Z</time></trkpt><trkpt lat="59.0940764733" lon="30.4754174128"><ele>55.41</ele><time>2026-08-20T10:38:25Z</time></trkpt><trkpt lat="59.0941314586" lon="30.4755656049"><ele>55.41</ele><time>2026-08-20T10:38:39Z</time></trkpt><trkpt lat="59.0941757988" lon="30.4757177364"><ele>55.41</ele><time>2026-08-20T10:38:53Z</time></trkpt><trkpt lat="59.0941470489" lon="30.4758886434"><ele>55.41</ele><time>2026-08-20T10:39:05Z</time></trkpt><trkpt lat="59.0941806603" lon="30.4760224186"><ele>55.41</ele><time>2026-08-20T10:39:16Z</time></trkpt><trkpt lat="59.0942003578" lon="30.4762319662"><ele>55.41</ele><time>2026-08-20T10:39:29Z</time></trkpt><trkpt lat="59.0941451211" lon="30.4764151108"><ele>55.41</ele><time>2026-08-20T10:39:44Z</time></trkpt><trkpt lat="59.0941273514" lon="30.4766045418"><ele>55.41</ele><time>2026-08-20T10:39:56Z</time></trkpt><trkpt lat="59.0941332188" lon="30.4767649714"><ele>54.93</ele><time>2026-08-20T10:40:09Z</time></trkpt><trkpt lat="59.0940689296" lon="30.4769408237"><ele>54.93</ele><time>2026-08-20T10:40:22Z</time></trkpt><trkpt lat="59.0940250922" lon="30.4771702364"><ele>54.93</ele><time>2026-08-20T10:40:36Z</time></trkpt><trkpt lat="59.0939498227" lon="30.4772419855"><ele>54.93</ele><time>2026-08-20T10:40:50Z</time></trkpt><trkpt lat="59.0938946698" lon="30.4773625173"><ele>54.93</ele><time>2026-08-20T10:41:06Z</time></trkpt><trkpt lat="59.0938117728" lon="30.4774377868"><ele>54.93</ele><time>2026-08-20T10:41:21Z</time></trkpt><trkpt lat="59.0937091783" lon="30.4773168359"><ele>54.93</ele><time>2026-08-20T10:41:37Z</time></trkpt><trkpt lat="59.0936234314" lon="30.4772056919"><ele>54.93</ele><time>2026-08-20T10:41:52Z</time></trkpt><trkpt lat="59.0935468208" lon="30.4772529658"><ele>54.93</ele><time>2026-08-20T10:42:04Z</time></trkpt><trkpt lat="59.0935220942" lon="30.4772260599"><ele>54.93</ele><time>2026-08-20T10:42:31Z</time></trkpt><trkpt lat="59.0935864672" lon="30.4771108925"><ele>54.45</ele><time>2026-08-20T10:42:55Z</time></trkpt><trkpt lat="59.0935613215" lon="30.4770161770"><ele>54.93</ele><time>2026-08-20T10:43:08Z</time></trkpt><trkpt lat="59.0935311466" lon="30.4769974854"><ele>54.45</ele><time>2026-08-20T10:43:27Z</time></trkpt><trkpt lat="59.0935956873" lon="30.4767861776"><ele>54.45</ele><time>2026-08-20T10:43:44Z</time></trkpt><trkpt lat="59.0935514309" lon="30.4766379856"><ele>54.93</ele><time>2026-08-20T10:43:58Z</time></trkpt><trkpt lat="59.0935193282" lon="30.4764399212"><ele>54.45</ele><time>2026-08-20T10:44:10Z</time></trkpt><trkpt lat="59.0935028158" lon="30.4762298707"><ele>54.45</ele><time>2026-08-20T10:44:25Z</time></trkpt><trkpt lat="59.0933874808" lon="30.4760807566"><ele>54.45</ele><time>2026-08-20T10:44:41Z</time></trkpt><trkpt lat="59.0933406260" lon="30.4758785013"><ele>53.97</ele><time>2026-08-20T10:44:55Z</time></trkpt><trkpt lat="59.0932434797" lon="30.4757766612"><ele>53.97</ele><time>2026-08-20T10:45:07Z</time></trkpt><trkpt lat="59.0931525361" lon="30.4757743143"><ele>53.97</ele><time>2026-08-20T10:45:21Z</time></trkpt><trkpt lat="59.0930869896" lon="30.4758960195"><ele>54.45</ele><time>2026-08-20T10:45:34Z</time></trkpt><trkpt lat="59.0930031706" lon="30.4757486656"><ele>53.97</ele><time>2026-08-20T10:45:49Z</time></trkpt><trkpt lat="59.0929506999" lon="30.4755560495"><ele>53.97</ele><time>2026-08-20T10:46:02Z</time></trkpt><trkpt lat="59.0929236263" lon="30.4753141478"><ele>53.97</ele><time>2026-08-20T10:46:18Z</time></trkpt><trkpt lat="59.0929271467" lon="30.4752202705"><ele>53.97</ele><time>2026-08-20T10:46:29Z</time></trkpt><trkpt lat="59.0929907653" lon="30.4750584997"><ele>53.97</ele><time>2026-08-20T10:46:43Z</time></trkpt><trkpt lat="59.0929841436" lon="30.4750996549"><ele>53.49</ele><time>2026-08-20T10:47:08Z</time></trkpt><trkpt lat="59.0930269752" lon="30.4751191009"><ele>53.49</ele><time>2026-08-20T10:47:37Z</time></trkpt><trkpt lat="59.0930159111" lon="30.4750459269"><ele>52.53</ele><time>2026-08-20T10:48:09Z</time></trkpt><trkpt lat="59.0931238700" lon="30.4749060329"><ele>53.49</ele><time>2026-08-20T10:48:25Z</time></trkpt><trkpt lat="59.0931858122" lon="30.4748865031"><ele>53.49</ele><time>2026-08-20T10:48:37Z</time></trkpt><trkpt lat="59.0932188369" lon="30.4747473635"><ele>53.49</ele><time>2026-08-20T10:48:52Z</time></trkpt><trkpt lat="59.0931327548" lon="30.4745958187"><ele>53.49</ele><time>2026-08-20T10:49:04Z</time></trkpt><trkpt lat="59.0930600837" lon="30.4743608739"><ele>53.49</ele><time>2026-08-20T10:49:21Z</time></trkpt><trkpt lat="59.0930325910" lon="30.4741351493"><ele>53.49</ele><time>2026-08-20T10:49:36Z</time></trkpt><trkpt lat="59.0930207726" lon="30.4739627335"><ele>53.49</ele><time>2026-08-20T10:49:50Z</time></trkpt><trkpt lat="59.0930038411" lon="30.4737665132"><ele>53.49</ele><time>2026-08-20T10:50:02Z</time></trkpt><trkpt lat="59.0930538811" lon="30.4735298920"><ele>53.49</ele><time>2026-08-20T10:50:19Z</time></trkpt><trkpt lat="59.0930647776" lon="30.4733322468"><ele>53.49</ele><time>2026-08-20T10:50:33Z</time></trkpt><trkpt lat="59.0930479299" lon="30.4730962124"><ele>53.49</ele><time>2026-08-20T10:50:47Z</time></trkpt><trkpt lat="59.0930303279" lon="30.4729165882"><ele>53.49</ele><time>2026-08-20T10:50:58Z</time></trkpt><trkpt lat="59.0930534620" lon="30.4726984072"><ele>53.49</ele><time>2026-08-20T10:51:12Z</time></trkpt><trkpt lat="59.0930332616" lon="30.4725725111"><ele>53.01</ele><time>2026-08-20T10:51:23Z</time></trkpt><trkpt lat="59.0930463374" lon="30.4724494647"><ele>53.01</ele><time>2026-08-20T10:51:35Z</time></trkpt><trkpt lat="59.0930555575" lon="30.4723477084"><ele>53.01</ele><time>2026-08-20T10:51:47Z</time></trkpt><trkpt lat="59.0930486005" lon="30.4721875302"><ele>52.53</ele><time>2026-08-20T10:52:04Z</time></trkpt><trkpt lat="59.0930475108" lon="30.4720312916"><ele>52.53</ele><time>2026-08-20T10:52:17Z</time></trkpt><trkpt lat="59.0930869896" lon="30.4718913976"><ele>53.01</ele><time>2026-08-20T10:52:32Z</time></trkpt><trkpt lat="59.0931037534" lon="30.4717258550"><ele>52.53</ele><time>2026-08-20T10:52:45Z</time></trkpt><trkpt lat="59.0931366105" lon="30.4716104362"><ele>52.05</ele><time>2026-08-20T10:52:57Z</time></trkpt><trkpt lat="59.0931511950" lon="30.4714308120"><ele>52.53</ele><time>2026-08-20T10:53:10Z</time></trkpt><trkpt lat="59.0931390412" lon="30.4712497629"><ele>52.05</ele><time>2026-08-20T10:53:23Z</time></trkpt><trkpt lat="59.0931473393" lon="30.4711149819"><ele>52.05</ele><time>2026-08-20T10:53:35Z</time></trkpt><trkpt lat="59.0931323357" lon="30.4709217791"><ele>52.05</ele><time>2026-08-20T10:53:49Z</time></trkpt><trkpt lat="59.0930692200" lon="30.4708118923"><ele>52.05</ele><time>2026-08-20T10:54:03Z</time></trkpt><trkpt lat="59.0930276457" lon="30.4707147460"><ele>51.57</ele><time>2026-08-20T10:54:14Z</time></trkpt><trkpt lat="59.0929946210" lon="30.4705840722"><ele>51.57</ele><time>2026-08-20T10:54:26Z</time></trkpt><trkpt lat="59.0929276496" lon="30.4706089664"><ele>51.57</ele><time>2026-08-20T10:54:38Z</time></trkpt><trkpt lat="59.0928279050" lon="30.4705458507"><ele>52.05</ele><time>2026-08-20T10:54:52Z</time></trkpt><trkpt lat="59.0927548986" lon="30.4704052024"><ele>51.57</ele><time>2026-08-20T10:55:07Z</time></trkpt><trkpt lat="59.0927166771" lon="30.4703069665"><ele>51.57</ele><time>2026-08-20T10:55:22Z</time></trkpt><trkpt lat="59.0927701537" lon="30.4702922981"><ele>51.57</ele><time>2026-08-20T10:55:46Z</time></trkpt><trkpt lat="59.0927736741" lon="30.4701338802"><ele>51.57</ele><time>2026-08-20T10:56:01Z</time></trkpt><trkpt lat="59.0927541442" lon="30.4699911363"><ele>51.57</ele><time>2026-08-20T10:56:15Z</time></trkpt><trkpt lat="59.0927795414" lon="30.4698203970"><ele>51.09</ele><time>2026-08-20T10:56:29Z</time></trkpt><trkpt lat="59.0927764401" lon="30.4696066584"><ele>51.09</ele><time>2026-08-20T10:56:43Z</time></trkpt><trkpt lat="59.0928036813" lon="30.4695324786"><ele>51.09</ele><time>2026-08-20T10:56:52Z</time></trkpt><trkpt lat="59.0927854087" lon="30.4693695344"><ele>51.09</ele><time>2026-08-20T10:57:05Z</time></trkpt><trkpt lat="59.0927454270" lon="30.4692041595"><ele>50.61</ele><time>2026-08-20T10:57:21Z</time></trkpt><trkpt lat="59.0927984845" lon="30.4690355994"><ele>50.61</ele><time>2026-08-20T10:57:36Z</time></trkpt><trkpt lat="59.0928267315" lon="30.4689082783"><ele>50.61</ele><time>2026-08-20T10:57:48Z</time></trkpt><trkpt lat="59.0929146577" lon="30.4687588289"><ele>50.13</ele><time>2026-08-20T10:58:01Z</time></trkpt><trkpt lat="59.0929926094" lon="30.4686295800"><ele>50.13</ele><time>2026-08-20T10:58:14Z</time></trkpt><trkpt lat="59.0930921864" lon="30.4685678892"><ele>49.65</ele><time>2026-08-20T10:58:28Z</time></trkpt><trkpt lat="59.0930958744" lon="30.4684638698"><ele>49.65</ele><time>2026-08-20T10:58:41Z</time></trkpt><trkpt lat="59.0931662824" lon="30.4682274163"><ele>49.65</ele><time>2026-08-20T10:58:55Z</time></trkpt><trkpt lat="59.0931297373" lon="30.4680379853"><ele>49.16</ele><time>2026-08-20T10:59:09Z</time></trkpt><trkpt lat="59.0930387937" lon="30.4680043738"><ele>49.65</ele><time>2026-08-20T10:59:25Z</time></trkpt><trkpt lat="59.0929352771" lon="30.4680857621"><ele>49.16</ele><time>2026-08-20T10:59:40Z</time></trkpt><trkpt lat="59.0927825589" lon="30.4681062140"><ele>48.68</ele><time>2026-08-20T10:59:56Z</time></trkpt><trkpt lat="59.0927320998" lon="30.4681300186"><ele>48.68</ele><time>2026-08-20T11:00:09Z</time></trkpt><trkpt lat="59.0926892683" lon="30.4680368956"><ele>49.16</ele><time>2026-08-20T11:00:23Z</time></trkpt><trkpt lat="59.0925789624" lon="30.4681308568"><ele>48.68</ele><time>2026-08-20T11:00:38Z</time></trkpt><trkpt lat="59.0924730990" lon="30.4681262467"><ele>48.68</ele><time>2026-08-20T11:00:53Z</time></trkpt><trkpt lat="59.0924067143" lon="30.4681842495"><ele>48.68</ele><time>2026-08-20T11:01:06Z</time></trkpt><trkpt lat="59.0923519805" lon="30.4682366364"><ele>49.16</ele><time>2026-08-20T11:01:18Z</time></trkpt><trkpt lat="59.0923073888" lon="30.4682425037"><ele>48.68</ele><time>2026-08-20T11:01:29Z</time></trkpt><trkpt lat="59.0922980011" lon="30.4683450982"><ele>48.68</ele><time>2026-08-20T11:01:52Z</time></trkpt><trkpt lat="59.0922959056" lon="30.4683918692"><ele>48.68</ele><time>2026-08-20T11:01:54Z</time></trkpt><trkpt lat="59.0923321992" lon="30.4685206991"><ele>48.68</ele><time>2026-08-20T11:02:11Z</time></trkpt><trkpt lat="59.0923575964" lon="30.4686187673"><ele>48.68</ele><time>2026-08-20T11:02:24Z</time></trkpt><trkpt lat="59.0923610330" lon="30.4687465914"><ele>49.16</ele><time>2026-08-20T11:02:37Z</time></trkpt><trkpt lat="59.0923442692" lon="30.4689115472"><ele>49.16</ele><time>2026-08-20T11:02:54Z</time></trkpt><trkpt lat="59.0923749469" lon="30.4691530298"><ele>49.65</ele><time>2026-08-20T11:03:15Z</time></trkpt><trkpt lat="59.0923969913" lon="30.4692768306"><ele>49.65</ele><time>2026-08-20T11:03:40Z</time></trkpt><trkpt lat="59.0924273338" lon="30.4694314767"><ele>49.65</ele><time>2026-08-20T11:04:01Z</time></trkpt><trkpt lat="59.0923944768" lon="30.4694560356"><ele>49.65</ele><time>2026-08-20T11:04:30Z</time></trkpt><trkpt lat="59.0924294293" lon="30.4697982688"><ele>49.65</ele><time>2026-08-20T11:04:52Z</time></trkpt><trkpt lat="59.0924523957" lon="30.4702073056"><ele>49.65</ele><time>2026-08-20T11:05:17Z</time></trkpt><trkpt lat="59.0924760327" lon="30.4703566711"><ele>49.16</ele><time>2026-08-20T11:05:32Z</time></trkpt><trkpt lat="59.0924823191" lon="30.4704673123"><ele>49.65</ele><time>2026-08-20T11:05:57Z</time></trkpt><trkpt lat="59.0925209597" lon="30.4706265684"><ele>50.13</ele><time>2026-08-20T11:06:11Z</time></trkpt><trkpt lat="59.0925366338" lon="30.4708116408"><ele>50.13</ele><time>2026-08-20T11:06:26Z</time></trkpt><trkpt lat="59.0925264079" lon="30.4710306600"><ele>50.13</ele><time>2026-08-20T11:06:41Z</time></trkpt><trkpt lat="59.0925258212" lon="30.4712175764"><ele>50.13</ele><time>2026-08-20T11:06:54Z</time></trkpt><trkpt lat="59.0925126616" lon="30.4713948537"><ele>50.13</ele><time>2026-08-20T11:07:06Z</time></trkpt><trkpt lat="59.0925109014" lon="30.4716550279"><ele>50.13</ele><time>2026-08-20T11:07:20Z</time></trkpt><trkpt lat="59.0925052855" lon="30.4717753921"><ele>51.09</ele><time>2026-08-20T11:07:26Z</time></trkpt><trkpt lat="59.0925609414" lon="30.4720370751"><ele>50.61</ele><time>2026-08-20T11:07:43Z</time></trkpt><trkpt lat="59.0925867576" lon="30.4723358061"><ele>50.61</ele><time>2026-08-20T11:07:58Z</time></trkpt><trkpt lat="59.0925737657" lon="30.4726431705"><ele>50.13</ele><time>2026-08-20T11:08:13Z</time></trkpt><trkpt lat="59.0926067065" lon="30.4729531333"><ele>50.13</ele><time>2026-08-20T11:08:29Z</time></trkpt><trkpt lat="59.0926082991" lon="30.4729719087"><ele>50.61</ele><time>2026-08-20T11:08:30Z</time></trkpt><trkpt lat="59.0926247276" lon="30.4732572287"><ele>50.61</ele><time>2026-08-20T11:08:45Z</time></trkpt><trkpt lat="59.0926207043" lon="30.4734972026"><ele>50.13</ele><time>2026-08-20T11:09:04Z</time></trkpt><trkpt lat="59.0926798806" lon="30.4737130366"><ele>50.61</ele><time>2026-08-20T11:09:23Z</time></trkpt><trkpt lat="59.0926926211" lon="30.4739391804"><ele>50.61</ele><time>2026-08-20T11:09:41Z</time></trkpt><trkpt lat="59.0927125700" lon="30.4742059764"><ele>50.61</ele><time>2026-08-20T11:09:59Z</time></trkpt><trkpt lat="59.0927321836" lon="30.4744530749"><ele>50.61</ele><time>2026-08-20T11:10:15Z</time></trkpt><trkpt lat="59.0927328542" lon="30.4746762011"><ele>50.61</ele><time>2026-08-20T11:10:29Z</time></trkpt><trkpt lat="59.0927648731" lon="30.4749560729"><ele>50.61</ele><time>2026-08-20T11:10:46Z</time></trkpt><trkpt lat="59.0927122347" lon="30.4751553945"><ele>51.09</ele><time>2026-08-20T11:11:03Z</time></trkpt><trkpt lat="59.0927713271" lon="30.4752793629"><ele>50.61</ele><time>2026-08-20T11:11:19Z</time></trkpt><trkpt lat="59.0927696507" lon="30.4754649382"><ele>50.61</ele><time>2026-08-20T11:11:43Z</time></trkpt><trkpt lat="59.0927787870" lon="30.4757174011"><ele>50.61</ele><time>2026-08-20T11:12:02Z</time></trkpt><trkpt lat="59.0927828103" lon="30.4759317264"><ele>50.61</ele><time>2026-08-20T11:12:22Z</time></trkpt><trkpt lat="59.0927868336" lon="30.4760471452"><ele>51.09</ele><time>2026-08-20T11:12:35Z</time></trkpt><trkpt lat="59.0927613527" lon="30.4762758035"><ele>51.09</ele><time>2026-08-20T11:12:55Z</time></trkpt><trkpt lat="59.0928206965" lon="30.4765493888"><ele>50.61</ele><time>2026-08-20T11:13:12Z</time></trkpt><trkpt lat="59.0928184334" lon="30.4767850880"><ele>51.09</ele><time>2026-08-20T11:13:33Z</time></trkpt><trkpt lat="59.0928360354" lon="30.4770218767"><ele>51.09</ele><time>2026-08-20T11:13:51Z</time></trkpt><trkpt lat="59.0928797051" lon="30.4772102181"><ele>51.09</ele><time>2026-08-20T11:14:05Z</time></trkpt><trkpt lat="59.0929015819" lon="30.4774275608"><ele>50.61</ele><time>2026-08-20T11:14:22Z</time></trkpt><trkpt lat="59.0929035097" lon="30.4776594043"><ele>50.61</ele><time>2026-08-20T11:14:36Z</time></trkpt><trkpt lat="59.0929628536" lon="30.4778913315"><ele>50.61</ele><time>2026-08-20T11:14:50Z</time></trkpt><trkpt lat="59.0929247160" lon="30.4781068303"><ele>50.61</ele><time>2026-08-20T11:15:09Z</time></trkpt><trkpt lat="59.0929831378" lon="30.4781877995"><ele>51.09</ele><time>2026-08-20T11:15:22Z</time></trkpt><trkpt lat="59.0929441620" lon="30.4783951677"><ele>51.09</ele><time>2026-08-20T11:15:39Z</time></trkpt><trkpt lat="59.0929259732" lon="30.4782433715"><ele>51.09</ele><time>2026-08-20T11:15:54Z</time></trkpt><trkpt lat="59.0929150768" lon="30.4780609813"><ele>50.61</ele><time>2026-08-20T11:16:08Z</time></trkpt><trkpt lat="59.0928952117" lon="30.4778415430"><ele>51.09</ele><time>2026-08-20T11:16:19Z</time></trkpt><trkpt lat="59.0928956307" lon="30.4777008947"><ele>51.09</ele><time>2026-08-20T11:16:31Z</time></trkpt><trkpt lat="59.0929014981" lon="30.4775845539"><ele>51.09</ele><time>2026-08-20T11:16:46Z</time></trkpt><trkpt lat="59.0928966366" lon="30.4773699772"><ele>51.09</ele><time>2026-08-20T11:17:03Z</time></trkpt><trkpt lat="59.0929349419" lon="30.4772166722"><ele>51.57</ele><time>2026-08-20T11:17:20Z</time></trkpt><trkpt lat="59.0929807909" lon="30.4771758523"><ele>51.57</ele><time>2026-08-20T11:17:33Z</time></trkpt><trkpt lat="59.0930145700" lon="30.4770738445"><ele>51.57</ele><time>2026-08-20T11:17:47Z</time></trkpt><trkpt lat="59.0931330901" lon="30.4770870041"><ele>51.57</ele><time>2026-08-20T11:18:03Z</time></trkpt><trkpt lat="59.0932388697" lon="30.4771932028"><ele>51.57</ele><time>2026-08-20T11:18:21Z</time></trkpt><trkpt lat="59.0933049191" lon="30.4771175981"><ele>51.57</ele><time>2026-08-20T11:18:45Z</time></trkpt><trkpt lat="59.0934241936" lon="30.4773261398"><ele>51.57</ele><time>2026-08-20T11:18:59Z</time></trkpt><trkpt lat="59.0935222618" lon="30.4772353638"><ele>51.57</ele><time>2026-08-20T11:19:23Z</time></trkpt><trkpt lat="59.0935868863" lon="30.4773004912"><ele>51.57</ele><time>2026-08-20T11:19:36Z</time></trkpt><trkpt lat="59.0936199110" lon="30.4774793610"><ele>52.05</ele><time>2026-08-20T11:19:52Z</time></trkpt><trkpt lat="59.0937100165" lon="30.4774256330"><ele>51.57</ele><time>2026-08-20T11:20:12Z</time></trkpt><trkpt lat="59.0937987808" lon="30.4773778562"><ele>51.57</ele><time>2026-08-20T11:20:27Z</time></trkpt><trkpt lat="59.0939299576" lon="30.4773608409"><ele>51.57</ele><time>2026-08-20T11:20:47Z</time></trkpt><trkpt lat="59.0940329712" lon="30.4774295725"><ele>52.05</ele><time>2026-08-20T11:21:03Z</time></trkpt><trkpt lat="59.0940903872" lon="30.4774597473"><ele>51.57</ele><time>2026-08-20T11:21:24Z</time></trkpt><trkpt lat="59.0940814186" lon="30.4774093721"><ele>51.09</ele><time>2026-08-20T11:21:50Z</time></trkpt><trkpt lat="59.0941032115" lon="30.4773753416"><ele>52.05</ele><time>2026-08-20T11:22:22Z</time></trkpt><trkpt lat="59.0941104200" lon="30.4773657024"><ele>52.05</ele><time>2026-08-20T11:22:48Z</time></trkpt><trkpt lat="59.0940918960" lon="30.4773330968"><ele>51.57</ele><time>2026-08-20T11:23:09Z</time></trkpt><trkpt lat="59.0940726176" lon="30.4773154110"><ele>52.05</ele><time>2026-08-20T11:23:35Z</time></trkpt><trkpt lat="59.0940528363" lon="30.4773121420"><ele>52.53</ele><time>2026-08-20T11:24:02Z</time></trkpt><trkpt lat="59.0940261818" lon="30.4773339350"><ele>53.01</ele><time>2026-08-20T11:24:30Z</time></trkpt><trkpt lat="59.0940599609" lon="30.4773284867"><ele>52.53</ele><time>2026-08-20T11:24:59Z</time></trkpt><trkpt lat="59.0941380803" lon="30.4773940332"><ele>52.53</ele><time>2026-08-20T11:25:14Z</time></trkpt><trkpt lat="59.0942076501" lon="30.4774025828"><ele>53.01</ele><time>2026-08-20T11:25:30Z</time></trkpt><trkpt lat="59.0942806564" lon="30.4773600027"><ele>53.01</ele><time>2026-08-20T11:25:53Z</time></trkpt><trkpt lat="59.0942474641" lon="30.4773705639"><ele>53.01</ele><time>2026-08-20T11:26:25Z</time></trkpt><trkpt lat="59.0942539182" lon="30.4773182608"><ele>53.01</ele><time>2026-08-20T11:26:56Z</time></trkpt><trkpt lat="59.0941853542" lon="30.4773051850"><ele>53.01</ele><time>2026-08-20T11:27:14Z</time></trkpt><trkpt lat="59.0940892976" lon="30.4773744196"><ele>53.01</ele><time>2026-08-20T11:27:29Z</time></trkpt><trkpt lat="59.0941130184" lon="30.4773729108"><ele>52.53</ele><time>2026-08-20T11:27:44Z</time></trkpt><trkpt lat="59.0940895490" lon="30.4773284029"><ele>51.57</ele><time>2026-08-20T11:28:13Z</time></trkpt><trkpt lat="59.0941222385" lon="30.4773635231"><ele>52.05</ele><time>2026-08-20T11:28:44Z</time></trkpt><trkpt lat="59.0941825043" lon="30.4773660377"><ele>52.53</ele><time>2026-08-20T11:29:11Z</time></trkpt><trkpt lat="59.0941709373" lon="30.4774168320"><ele>53.01</ele><time>2026-08-20T11:29:46Z</time></trkpt><trkpt lat="59.0941762179" lon="30.4773751739"><ele>53.49</ele><time>2026-08-20T11:30:19Z</time></trkpt><trkpt lat="59.0941250045" lon="30.4773066100"><ele>53.97</ele><time>2026-08-20T11:30:54Z</time></trkpt><trkpt lat="59.0942178760" lon="30.4773096275"><ele>53.49</ele><time>2026-08-20T11:31:35Z</time></trkpt><trkpt lat="59.0941400081" lon="30.4773626849"><ele>53.49</ele><time>2026-08-20T11:32:03Z</time></trkpt><trkpt lat="59.0941455401" lon="30.4773886688"><ele>54.45</ele><time>2026-08-20T11:32:25Z</time></trkpt><trkpt lat="59.0941155329" lon="30.4773398023"><ele>54.93</ele><time>2026-08-20T11:32:51Z</time></trkpt><trkpt lat="59.0941706020" lon="30.4773335159"><ele>55.41</ele><time>2026-08-20T11:33:21Z</time></trkpt><trkpt lat="59.0942583606" lon="30.4773428198"><ele>55.89</ele><time>2026-08-20T11:33:52Z</time></trkpt><trkpt lat="59.0942661557" lon="30.4773191828"><ele>56.37</ele><time>2026-08-20T11:34:26Z</time></trkpt><trkpt lat="59.0941543411" lon="30.4773450829"><ele>56.37</ele><time>2026-08-20T11:35:01Z</time></trkpt><trkpt lat="59.0941799898" lon="30.4773785267"><ele>56.86</ele><time>2026-08-20T11:35:31Z</time></trkpt><trkpt lat="59.0941063128" lon="30.4772539716"><ele>56.86</ele><time>2026-08-20T11:36:01Z</time></trkpt><trkpt lat="59.0940801613" lon="30.4772389680"><ele>56.86</ele><time>2026-08-20T11:36:29Z</time></trkpt><trkpt lat="59.0940449573" lon="30.4771936219"><ele>55.89</ele><time>2026-08-20T11:37:02Z</time></trkpt><trkpt lat="59.0941379964" lon="30.4773232900"><ele>57.34</ele><time>2026-08-20T11:37:30Z</time></trkpt><trkpt lat="59.0941508207" lon="30.4772911873"><ele>57.34</ele><time>2026-08-20T11:37:57Z</time></trkpt><trkpt lat="59.0941595379" lon="30.4773019161"><ele>57.82</ele><time>2026-08-20T11:38:27Z</time></trkpt><trkpt lat="59.0942514036" lon="30.4773313366"><ele>57.82</ele><time>2026-08-20T11:38:48Z</time></trkpt><trkpt lat="59.0944218077" lon="30.4772880021"><ele>58.30</ele><time>2026-08-20T11:39:05Z</time></trkpt><trkpt lat="59.0945498832" lon="30.4772590846"><ele>58.30</ele><time>2026-08-20T11:39:22Z</time></trkpt><trkpt lat="59.0946632065" lon="30.4772774410"><ele>58.30</ele><time>2026-08-20T11:39:41Z</time></trkpt><trkpt lat="59.0948008373" lon="30.4772516247"><ele>58.30</ele><time>2026-08-20T11:39:58Z</time></trkpt><trkpt lat="59.0948975645" lon="30.4772498645"><ele>57.82</ele><time>2026-08-20T11:40:12Z</time></trkpt><trkpt lat="59.0949965548" lon="30.4772277363"><ele>57.82</ele><time>2026-08-20T11:40:33Z</time></trkpt><trkpt lat="59.0950797033" lon="30.4772351962"><ele>57.82</ele><time>2026-08-20T11:40:49Z</time></trkpt><trkpt lat="59.0952194296" lon="30.4772367049"><ele>57.34</ele><time>2026-08-20T11:41:06Z</time></trkpt><trkpt lat="59.0953256283" lon="30.4772388842"><ele>57.34</ele><time>2026-08-20T11:41:20Z</time></trkpt><trkpt lat="59.0954292286" lon="30.4771024268"><ele>57.34</ele><time>2026-08-20T11:41:36Z</time></trkpt><trkpt lat="59.0955327451" lon="30.4771135747"><ele>56.86</ele><time>2026-08-20T11:41:51Z</time></trkpt><trkpt lat="59.0956172347" lon="30.4770281631"><ele>57.34</ele><time>2026-08-20T11:42:05Z</time></trkpt><trkpt lat="59.0957759880" lon="30.4770176858"><ele>56.86</ele><time>2026-08-20T11:42:22Z</time></trkpt><trkpt lat="59.0958948433" lon="30.4770377185"><ele>56.37</ele><time>2026-08-20T11:42:36Z</time></trkpt><trkpt lat="59.0959972702" lon="30.4769709986"><ele>56.37</ele><time>2026-08-20T11:42:50Z</time></trkpt><trkpt lat="59.0961221606" lon="30.4770025983"><ele>56.37</ele><time>2026-08-20T11:43:07Z</time></trkpt><trkpt lat="59.0962072369" lon="30.4771058634"><ele>55.89</ele><time>2026-08-20T11:43:19Z</time></trkpt><trkpt lat="59.0963110048" lon="30.4769938812"><ele>55.89</ele><time>2026-08-20T11:43:32Z</time></trkpt><trkpt lat="59.0964177065" lon="30.4769525584"><ele>55.89</ele><time>2026-08-20T11:43:45Z</time></trkpt><trkpt lat="59.0965202171" lon="30.4768899456"><ele>55.89</ele><time>2026-08-20T11:44:00Z</time></trkpt><trkpt lat="59.0965586901" lon="30.4769036919"><ele>55.41</ele><time>2026-08-20T11:44:04Z</time></trkpt><trkpt lat="59.0966906212" lon="30.4768622015"><ele>55.41</ele><time>2026-08-20T11:44:19Z</time></trkpt><trkpt lat="59.0967888571" lon="30.4768599384"><ele>55.41</ele><time>2026-08-20T11:44:32Z</time></trkpt><trkpt lat="59.0968951397" lon="30.4767896142"><ele>54.93</ele><time>2026-08-20T11:44:45Z</time></trkpt><trkpt lat="59.0970081277" lon="30.4768518917"><ele>54.93</ele><time>2026-08-20T11:45:01Z</time></trkpt><trkpt lat="59.0971175954" lon="30.4768199567"><ele>55.41</ele><time>2026-08-20T11:45:21Z</time></trkpt><trkpt lat="59.0971971396" lon="30.4767694138"><ele>55.41</ele><time>2026-08-20T11:45:33Z</time></trkpt><trkpt lat="59.0972905979" lon="30.4767182842"><ele>54.93</ele><time>2026-08-20T11:45:46Z</time></trkpt><trkpt lat="59.0973694716" lon="30.4766588565"><ele>55.41</ele><time>2026-08-20T11:45:58Z</time></trkpt><trkpt lat="59.0974554699" lon="30.4766699206"><ele>55.41</ele><time>2026-08-20T11:46:10Z</time></trkpt><trkpt lat="59.0975123830" lon="30.4767627921"><ele>55.41</ele><time>2026-08-20T11:46:22Z</time></trkpt><trkpt lat="59.0975210164" lon="30.4768182803"><ele>55.41</ele><time>2026-08-20T11:46:26Z</time></trkpt><trkpt lat="59.0975334216" lon="30.4770058673"><ele>55.89</ele><time>2026-08-20T11:46:38Z</time></trkpt><trkpt lat="59.0975309070" lon="30.4772462603"><ele>55.41</ele><time>2026-08-20T11:46:51Z</time></trkpt><trkpt lat="59.0975360200" lon="30.4772760998"><ele>55.41</ele><time>2026-08-20T11:46:53Z</time></trkpt><trkpt lat="59.0975492634" lon="30.4773175064"><ele>44.84</ele><time>2026-08-20T11:46:55Z</time></trkpt><trkpt lat="59.0975495148" lon="30.4773370363"><ele>44.84</ele><time>2026-08-20T11:46:56Z</time></trkpt><trkpt lat="59.0975404624" lon="30.4773486871"><ele>56.37</ele><time>2026-08-20T11:47:00Z</time></trkpt><trkpt lat="59.0975389536" lon="30.4773515370"><ele>55.89</ele><time>2026-08-20T11:47:01Z</time></trkpt><trkpt lat="59.0975076053" lon="30.4775014892"><ele>55.89</ele><time>2026-08-20T11:47:16Z</time></trkpt><trkpt lat="59.0975104552" lon="30.4775640182"><ele>55.41</ele><time>2026-08-20T11:47:29Z</time></trkpt><trkpt lat="59.0975488443" lon="30.4777593166"><ele>55.41</ele><time>2026-08-20T11:47:43Z</time></trkpt><trkpt lat="59.0975479223" lon="30.4778402857"><ele>55.41</ele><time>2026-08-20T11:47:53Z</time></trkpt><trkpt lat="59.0975433122" lon="30.4778009746"><ele>55.41</ele><time>2026-08-20T11:48:09Z</time></trkpt><trkpt lat="59.0975620039" lon="30.4778888170"><ele>54.93</ele><time>2026-08-20T11:48:26Z</time></trkpt><trkpt lat="59.0975701343" lon="30.4779381026"><ele>54.93</ele><time>2026-08-20T11:48:29Z</time></trkpt><trkpt lat="59.0975870658" lon="30.4781679343"><ele>55.41</ele><time>2026-08-20T11:48:42Z</time></trkpt><trkpt lat="59.0975980461" lon="30.4784164578"><ele>55.41</ele><time>2026-08-20T11:48:56Z</time></trkpt><trkpt lat="59.0975542925" lon="30.4785999376"><ele>54.93</ele><time>2026-08-20T11:49:11Z</time></trkpt><trkpt lat="59.0976155642" lon="30.4786915518"><ele>54.93</ele><time>2026-08-20T11:49:25Z</time></trkpt><trkpt lat="59.0976578090" lon="30.4788710922"><ele>55.89</ele><time>2026-08-20T11:49:40Z</time></trkpt><trkpt lat="59.0976379439" lon="30.4792790394"><ele>55.41</ele><time>2026-08-20T11:50:02Z</time></trkpt><trkpt lat="59.0976376925" lon="30.4794223700"><ele>55.41</ele><time>2026-08-20T11:50:16Z</time></trkpt><trkpt lat="59.0976362675" lon="30.4795900080"><ele>54.93</ele><time>2026-08-20T11:50:28Z</time></trkpt><trkpt lat="59.0976355970" lon="30.4796897527"><ele>55.41</ele><time>2026-08-20T11:50:41Z</time></trkpt><trkpt lat="59.0976998862" lon="30.4798279703"><ele>54.93</ele><time>2026-08-20T11:50:54Z</time></trkpt><trkpt lat="59.0977104474" lon="30.4799693730"><ele>55.41</ele><time>2026-08-20T11:51:03Z</time></trkpt><trkpt lat="59.0977165662" lon="30.4800167307"><ele>55.41</ele><time>2026-08-20T11:51:07Z</time></trkpt><trkpt lat="59.0976980422" lon="30.4801498353"><ele>55.41</ele><time>2026-08-20T11:51:19Z</time></trkpt><trkpt lat="59.0976809431" lon="30.4803422000"><ele>54.93</ele><time>2026-08-20T11:51:33Z</time></trkpt><trkpt lat="59.0977219306" lon="30.4805551842"><ele>54.93</ele><time>2026-08-20T11:51:46Z</time></trkpt><trkpt lat="59.0977095254" lon="30.4807651509"><ele>54.93</ele><time>2026-08-20T11:51:58Z</time></trkpt><trkpt lat="59.0977200866" lon="30.4808263388"><ele>54.93</ele><time>2026-08-20T11:52:04Z</time></trkpt><trkpt lat="59.0977293905" lon="30.4809416737"><ele>54.93</ele><time>2026-08-20T11:52:17Z</time></trkpt><trkpt lat="59.0977723058" lon="30.4810631275"><ele>54.93</ele><time>2026-08-20T11:52:28Z</time></trkpt><trkpt lat="59.0977723897" lon="30.4812156782"><ele>54.93</ele><time>2026-08-20T11:52:37Z</time></trkpt><trkpt lat="59.0977845434" lon="30.4814226273"><ele>54.93</ele><time>2026-08-20T11:52:51Z</time></trkpt><trkpt lat="59.0977742337" lon="30.4815906007"><ele>54.45</ele><time>2026-08-20T11:53:01Z</time></trkpt><trkpt lat="59.0977679472" lon="30.4817910120"><ele>54.45</ele><time>2026-08-20T11:53:12Z</time></trkpt><trkpt lat="59.0977604873" lon="30.4819660261"><ele>54.45</ele><time>2026-08-20T11:53:22Z</time></trkpt><trkpt lat="59.0977505129" lon="30.4821386095"><ele>54.45</ele><time>2026-08-20T11:53:34Z</time></trkpt><trkpt lat="59.0977334138" lon="30.4823002126"><ele>53.97</ele><time>2026-08-20T11:53:45Z</time></trkpt><trkpt lat="59.0977084357" lon="30.4824801721"><ele>53.97</ele><time>2026-08-20T11:53:56Z</time></trkpt><trkpt lat="59.0977015626" lon="30.4826303758"><ele>54.45</ele><time>2026-08-20T11:54:11Z</time></trkpt><trkpt lat="59.0977288876" lon="30.4827439506"><ele>53.97</ele><time>2026-08-20T11:54:26Z</time></trkpt><trkpt lat="59.0977488365" lon="30.4829265922"><ele>53.97</ele><time>2026-08-20T11:54:38Z</time></trkpt><trkpt lat="59.0977371018" lon="30.4830298573"><ele>53.97</ele><time>2026-08-20T11:54:43Z</time></trkpt><trkpt lat="59.0977231879" lon="30.4832483735"><ele>53.97</ele><time>2026-08-20T11:54:55Z</time></trkpt><trkpt lat="59.0977063403" lon="30.4833660554"><ele>53.01</ele><time>2026-08-20T11:55:09Z</time></trkpt><trkpt lat="59.0977429692" lon="30.4835049435"><ele>53.97</ele><time>2026-08-20T11:55:29Z</time></trkpt><trkpt lat="59.0977524407" lon="30.4837495275"><ele>53.49</ele><time>2026-08-20T11:55:42Z</time></trkpt><trkpt lat="59.0977499261" lon="30.4839551356"><ele>53.49</ele><time>2026-08-20T11:55:55Z</time></trkpt><trkpt lat="59.0977463219" lon="30.4840133898"><ele>53.01</ele><time>2026-08-20T11:56:10Z</time></trkpt><trkpt lat="59.0977860522" lon="30.4841688741"><ele>53.01</ele><time>2026-08-20T11:56:30Z</time></trkpt><trkpt lat="59.0977728926" lon="30.4843764100"><ele>53.01</ele><time>2026-08-20T11:56:44Z</time></trkpt><trkpt lat="59.0977843758" lon="30.4844992887"><ele>53.01</ele><time>2026-08-20T11:56:59Z</time></trkpt><trkpt lat="59.0977718029" lon="30.4847103450"><ele>53.01</ele><time>2026-08-20T11:57:12Z</time></trkpt><trkpt lat="59.0978154726" lon="30.4849063139"><ele>52.53</ele><time>2026-08-20T11:57:26Z</time></trkpt><trkpt lat="59.0978204180" lon="30.4850958288"><ele>52.53</ele><time>2026-08-20T11:57:38Z</time></trkpt><trkpt lat="59.0978270397" lon="30.4852964915"><ele>52.53</ele><time>2026-08-20T11:57:52Z</time></trkpt><trkpt lat="59.0978244413" lon="30.4854829051"><ele>53.49</ele><time>2026-08-20T11:58:06Z</time></trkpt><trkpt lat="59.0978352539" lon="30.4856809694"><ele>52.53</ele><time>2026-08-20T11:58:18Z</time></trkpt><trkpt lat="59.0978328232" lon="30.4857642017"><ele>52.53</ele><time>2026-08-20T11:58:22Z</time></trkpt><trkpt lat="59.0978268720" lon="30.4859367013"><ele>52.05</ele><time>2026-08-20T11:58:35Z</time></trkpt><trkpt lat="59.0979760699" lon="30.4859641939"><ele>52.53</ele><time>2026-08-20T11:58:50Z</time></trkpt><trkpt lat="59.0981260221" lon="30.4859455023"><ele>52.05</ele><time>2026-08-20T11:59:04Z</time></trkpt><trkpt lat="59.0982389264" lon="30.4859149922"><ele>52.05</ele><time>2026-08-20T11:59:17Z</time></trkpt><trkpt lat="59.0983121004" lon="30.4858838115"><ele>52.05</ele><time>2026-08-20T11:59:28Z</time></trkpt><trkpt lat="59.0983479749" lon="30.4858431593"><ele>51.57</ele><time>2026-08-20T11:59:37Z</time></trkpt><trkpt lat="59.0983769763" lon="30.4858402256"><ele>52.05</ele><time>2026-08-20T11:59:40Z</time></trkpt><trkpt lat="59.0984159522" lon="30.4858465120"><ele>52.05</ele><time>2026-08-20T11:59:44Z</time></trkpt><trkpt lat="59.0984782297" lon="30.4858400580"><ele>52.05</ele><time>2026-08-20T11:59:50Z</time></trkpt><trkpt lat="59.0985236596" lon="30.4858293291"><ele>52.05</ele><time>2026-08-20T11:59:55Z</time></trkpt><trkpt lat="59.0985542536" lon="30.4858172592"><ele>51.57</ele><time>2026-08-20T11:59:59Z</time></trkpt><trkpt lat="59.0986864362" lon="30.4858060274"><ele>52.05</ele><time>2026-08-20T12:00:12Z</time></trkpt><trkpt lat="59.0987868514" lon="30.4857976455"><ele>51.57</ele><time>2026-08-20T12:00:29Z</time></trkpt><trkpt lat="59.0988978278" lon="30.4857777804"><ele>52.05</ele><time>2026-08-20T12:00:43Z</time></trkpt><trkpt lat="59.0990336146" lon="30.4857321829"><ele>52.05</ele><time>2026-08-20T12:00:58Z</time></trkpt><trkpt lat="59.0991005022" lon="30.4856888484"><ele>52.05</ele><time>2026-08-20T12:01:07Z</time></trkpt><trkpt lat="59.0992486943" lon="30.4856533930"><ele>51.57</ele><time>2026-08-20T12:01:24Z</time></trkpt><trkpt lat="59.0993993171" lon="30.4856671393"><ele>52.05</ele><time>2026-08-20T12:01:39Z</time></trkpt><trkpt lat="59.0995347686" lon="30.4856333602"><ele>51.57</ele><time>2026-08-20T12:01:56Z</time></trkpt><trkpt lat="59.0995419770" lon="30.4856121540"><ele>52.05</ele><time>2026-08-20T12:02:16Z</time></trkpt><trkpt lat="59.0995941125" lon="30.4855794646"><ele>52.05</ele><time>2026-08-20T12:02:33Z</time></trkpt><trkpt lat="59.0997621696" lon="30.4855832364"><ele>52.05</ele><time>2026-08-20T12:02:54Z</time></trkpt><trkpt lat="59.0999630000" lon="30.4855066258"><ele>52.05</ele><time>2026-08-20T12:03:17Z</time></trkpt><trkpt lat="59.1001379304" lon="30.4854891915"><ele>52.05</ele><time>2026-08-20T12:03:37Z</time></trkpt><trkpt lat="59.1002622340" lon="30.4854178615"><ele>52.53</ele><time>2026-08-20T12:03:52Z</time></trkpt><trkpt lat="59.1004021280" lon="30.4853984155"><ele>52.53</ele><time>2026-08-20T12:04:15Z</time></trkpt><trkpt lat="59.1005784832" lon="30.4853554163"><ele>52.53</ele><time>2026-08-20T12:04:36Z</time></trkpt><trkpt lat="59.1007249150" lon="30.4853298515"><ele>52.53</ele><time>2026-08-20T12:04:51Z</time></trkpt><trkpt lat="59.1008443572" lon="30.4853021912"><ele>52.53</ele><time>2026-08-20T12:05:11Z</time></trkpt><trkpt lat="59.1010264121" lon="30.4852544982"><ele>52.53</ele><time>2026-08-20T12:05:28Z</time></trkpt><trkpt lat="59.1010583472" lon="30.4852026980"><ele>52.53</ele><time>2026-08-20T12:05:48Z</time></trkpt><trkpt lat="59.1009929683" lon="30.4851175379"><ele>52.05</ele><time>2026-08-20T12:06:08Z</time></trkpt><trkpt lat="59.1009073891" lon="30.4851198010"><ele>52.05</ele><time>2026-08-20T12:06:33Z</time></trkpt><trkpt lat="59.1008657310" lon="30.4850151110"><ele>52.53</ele><time>2026-08-20T12:06:50Z</time></trkpt><trkpt lat="59.1007912159" lon="30.4850622173"><ele>52.53</ele><time>2026-08-20T12:07:05Z</time></trkpt><trkpt lat="59.1007327102" lon="30.4850227386"><ele>52.05</ele><time>2026-08-20T12:07:18Z</time></trkpt><trkpt lat="59.1006354801" lon="30.4849771410"><ele>52.53</ele><time>2026-08-20T12:07:33Z</time></trkpt><trkpt lat="59.1005792376" lon="30.4850586131"><ele>52.53</ele><time>2026-08-20T12:07:56Z</time></trkpt><trkpt lat="59.1005328018" lon="30.4851763789"><ele>52.53</ele><time>2026-08-20T12:08:19Z</time></trkpt><trkpt lat="59.1005442012" lon="30.4851326253"><ele>51.57</ele><time>2026-08-20T12:08:35Z</time></trkpt><trkpt lat="59.1005456261" lon="30.4851281829"><ele>52.05</ele><time>2026-08-20T12:09:00Z</time></trkpt><trkpt lat="59.1005879547" lon="30.4851059709"><ele>51.57</ele><time>2026-08-20T12:09:22Z</time></trkpt><trkpt lat="59.1006050538" lon="30.4851142690"><ele>51.57</ele><time>2026-08-20T12:09:48Z</time></trkpt><trkpt lat="59.1006421857" lon="30.4851550888"><ele>52.53</ele><time>2026-08-20T12:10:12Z</time></trkpt><trkpt lat="59.1006544232" lon="30.4852000158"><ele>52.05</ele><time>2026-08-20T12:10:35Z</time></trkpt><trkpt lat="59.1006528307" lon="30.4853487946"><ele>53.01</ele><time>2026-08-20T12:10:53Z</time></trkpt><trkpt lat="59.1008332931" lon="30.4852785543"><ele>53.01</ele><time>2026-08-20T12:11:14Z</time></trkpt><trkpt lat="59.1010163538" lon="30.4852376506"><ele>53.01</ele><time>2026-08-20T12:11:33Z</time></trkpt><trkpt lat="59.1012165975" lon="30.4852410033"><ele>53.97</ele><time>2026-08-20T12:11:51Z</time></trkpt><trkpt lat="59.1013375483" lon="30.4852003511"><ele>53.01</ele><time>2026-08-20T12:12:03Z</time></trkpt><trkpt lat="59.1014219541" lon="30.4852113314"><ele>53.01</ele><time>2026-08-20T12:12:16Z</time></trkpt><trkpt lat="59.1015492752" lon="30.4851476289"><ele>53.01</ele><time>2026-08-20T12:12:30Z</time></trkpt><trkpt lat="59.1016216949" lon="30.4851188790"><ele>53.01</ele><time>2026-08-20T12:12:44Z</time></trkpt><trkpt lat="59.1017626785" lon="30.4851450305"><ele>53.01</ele><time>2026-08-20T12:12:59Z</time></trkpt><trkpt lat="59.1018928494" lon="30.4851527419"><ele>53.01</ele><time>2026-08-20T12:13:14Z</time></trkpt><trkpt lat="59.1020678636" lon="30.4851287697"><ele>53.49</ele><time>2026-08-20T12:13:25Z</time></trkpt><trkpt lat="59.1022626590" lon="30.4850078188"><ele>53.01</ele><time>2026-08-20T12:13:41Z</time></trkpt><trkpt lat="59.1022985335" lon="30.4849822540"><ele>53.01</ele><time>2026-08-20T12:13:58Z</time></trkpt><trkpt lat="59.1023920756" lon="30.4849708546"><ele>53.97</ele><time>2026-08-20T12:14:08Z</time></trkpt><trkpt lat="59.1025459673" lon="30.4849631432"><ele>53.01</ele><time>2026-08-20T12:14:22Z</time></trkpt><trkpt lat="59.1026707739" lon="30.4848892987"><ele>53.01</ele><time>2026-08-20T12:14:37Z</time></trkpt><trkpt lat="59.1027965024" lon="30.4848402645"><ele>53.01</ele><time>2026-08-20T12:14:48Z</time></trkpt><trkpt lat="59.1028766334" lon="30.4847248457"><ele>52.53</ele><time>2026-08-20T12:15:00Z</time></trkpt><trkpt lat="59.1029006056" lon="30.4847709462"><ele>52.53</ele><time>2026-08-20T12:15:03Z</time></trkpt><trkpt lat="59.1029435210" lon="30.4848271050"><ele>52.53</ele><time>2026-08-20T12:15:13Z</time></trkpt><trkpt lat="59.1029294394" lon="30.4848298710"><ele>52.53</ele><time>2026-08-20T12:15:41Z</time></trkpt><trkpt lat="59.1029472090" lon="30.4848237522"><ele>52.05</ele><time>2026-08-20T12:16:07Z</time></trkpt><trkpt lat="59.1031237319" lon="30.4847855307"><ele>52.05</ele><time>2026-08-20T12:16:26Z</time></trkpt><trkpt lat="59.1031578463" lon="30.4847654980"><ele>51.57</ele><time>2026-08-20T12:16:49Z</time></trkpt><trkpt lat="59.1033648793" lon="30.4847275279"><ele>51.09</ele><time>2026-08-20T12:17:06Z</time></trkpt><trkpt lat="59.1035931185" lon="30.4847035557"><ele>51.57</ele><time>2026-08-20T12:17:23Z</time></trkpt><trkpt lat="59.1038031690" lon="30.4846543539"><ele>51.57</ele><time>2026-08-20T12:17:41Z</time></trkpt><trkpt lat="59.1040620860" lon="30.4845550284"><ele>51.57</ele><time>2026-08-20T12:18:01Z</time></trkpt><trkpt lat="59.1043006349" lon="30.4845165554"><ele>51.57</ele><time>2026-08-20T12:18:20Z</time></trkpt><trkpt lat="59.1045236774" lon="30.4844983667"><ele>51.57</ele><time>2026-08-20T12:18:36Z</time></trkpt><trkpt lat="59.1047367454" lon="30.4844365921"><ele>51.57</ele><time>2026-08-20T12:18:53Z</time></trkpt><trkpt lat="59.1049409285" lon="30.4844069201"><ele>51.57</ele><time>2026-08-20T12:19:09Z</time></trkpt><trkpt lat="59.1051441897" lon="30.4843376018"><ele>51.57</ele><time>2026-08-20T12:19:25Z</time></trkpt><trkpt lat="59.1053166892" lon="30.4843327403"><ele>51.57</ele><time>2026-08-20T12:19:43Z</time></trkpt><trkpt lat="59.1055783723" lon="30.4842145555"><ele>52.05</ele><time>2026-08-20T12:20:02Z</time></trkpt><trkpt lat="59.1057500336" lon="30.4842148907"><ele>52.05</ele><time>2026-08-20T12:20:17Z</time></trkpt><trkpt lat="59.1059501097" lon="30.4841652699"><ele>52.05</ele><time>2026-08-20T12:20:35Z</time></trkpt><trkpt lat="59.1061409656" lon="30.4840464983"><ele>52.05</ele><time>2026-08-20T12:20:53Z</time></trkpt><trkpt lat="59.1062912531" lon="30.4840018228"><ele>52.05</ele><time>2026-08-20T12:21:11Z</time></trkpt><trkpt lat="59.1064153053" lon="30.4839882441"><ele>52.05</ele><time>2026-08-20T12:21:26Z</time></trkpt><trkpt lat="59.1067314707" lon="30.4839462508"><ele>52.05</ele><time>2026-08-20T12:21:45Z</time></trkpt><trkpt lat="59.1068931576" lon="30.4839672893"><ele>52.53</ele><time>2026-08-20T12:21:59Z</time></trkpt><trkpt lat="59.1070778109" lon="30.4839564767"><ele>52.53</ele><time>2026-08-20T12:22:18Z</time></trkpt><trkpt lat="59.1072934773" lon="30.4838924389"><ele>53.01</ele><time>2026-08-20T12:22:37Z</time></trkpt><trkpt lat="59.1074322816" lon="30.4838050995"><ele>53.01</ele><time>2026-08-20T12:22:53Z</time></trkpt><trkpt lat="59.1076033562" lon="30.4837991484"><ele>53.01</ele><time>2026-08-20T12:23:09Z</time></trkpt><trkpt lat="59.1078057792" lon="30.4837903474"><ele>53.01</ele><time>2026-08-20T12:23:25Z</time></trkpt><trkpt lat="59.1079721600" lon="30.4837506171"><ele>53.01</ele><time>2026-08-20T12:23:38Z</time></trkpt><trkpt lat="59.1081723198" lon="30.4837217834"><ele>53.01</ele><time>2026-08-20T12:23:54Z</time></trkpt><trkpt lat="59.1083658580" lon="30.4836550634"><ele>53.01</ele><time>2026-08-20T12:24:09Z</time></trkpt><trkpt lat="59.1085193306" lon="30.4836101364"><ele>53.49</ele><time>2026-08-20T12:24:26Z</time></trkpt><trkpt lat="59.1087288782" lon="30.4836313426"><ele>53.49</ele><time>2026-08-20T12:24:45Z</time></trkpt><trkpt lat="59.1088664252" lon="30.4835415725"><ele>53.97</ele><time>2026-08-20T12:25:03Z</time></trkpt><trkpt lat="59.1088803392" lon="30.4833823163"><ele>53.49</ele><time>2026-08-20T12:25:19Z</time></trkpt><trkpt lat="59.1089572851" lon="30.4832415003"><ele>53.97</ele><time>2026-08-20T12:25:35Z</time></trkpt><trkpt lat="59.1090090014" lon="30.4833103158"><ele>53.97</ele><time>2026-08-20T12:25:49Z</time></trkpt><trkpt lat="59.1090628132" lon="30.4832498822"><ele>54.45</ele><time>2026-08-20T12:26:00Z</time></trkpt><trkpt lat="59.1090659145" lon="30.4831477068"><ele>53.97</ele><time>2026-08-20T12:26:05Z</time></trkpt><trkpt lat="59.1091466323" lon="30.4831180349"><ele>53.97</ele><time>2026-08-20T12:26:17Z</time></trkpt><trkpt lat="59.1091777291" lon="30.4831051268"><ele>53.49</ele><time>2026-08-20T12:26:21Z</time></trkpt><trkpt lat="59.1093126778" lon="30.4830620438"><ele>53.49</ele><time>2026-08-20T12:26:29Z</time></trkpt><trkpt lat="59.1093533300" lon="30.4830462020"><ele>53.49</ele><time>2026-08-20T12:26:32Z</time></trkpt><trkpt lat="59.1095240694" lon="30.4829627182"><ele>53.49</ele><time>2026-08-20T12:26:45Z</time></trkpt><trkpt lat="59.1095054615" lon="30.4829695076"><ele>53.49</ele><time>2026-08-20T12:26:58Z</time></trkpt><trkpt lat="59.1095521487" lon="30.4829679988"><ele>53.49</ele><time>2026-08-20T12:27:06Z</time></trkpt><trkpt lat="59.1096518934" lon="30.4829121754"><ele>53.49</ele><time>2026-08-20T12:27:22Z</time></trkpt><trkpt lat="59.1098398156" lon="30.4829246644"><ele>53.49</ele><time>2026-08-20T12:27:36Z</time></trkpt><trkpt lat="59.1098544840" lon="30.4829271790"><ele>53.97</ele><time>2026-08-20T12:27:37Z</time></trkpt><trkpt lat="59.1100869980" lon="30.4828426056"><ele>53.49</ele><time>2026-08-20T12:27:53Z</time></trkpt><trkpt lat="59.1102737468" lon="30.4827614687"><ele>53.97</ele><time>2026-08-20T12:28:07Z</time></trkpt><trkpt lat="59.1104649380" lon="30.4827255104"><ele>53.97</ele><time>2026-08-20T12:28:20Z</time></trkpt><trkpt lat="59.1106853820" lon="30.4826764762"><ele>53.97</ele><time>2026-08-20T12:28:35Z</time></trkpt><trkpt lat="59.1108833626" lon="30.4825950041"><ele>53.49</ele><time>2026-08-20T12:28:49Z</time></trkpt><trkpt lat="59.1109372582" lon="30.4825667571"><ele>53.97</ele><time>2026-08-20T12:28:53Z</time></trkpt><trkpt lat="59.1111401003" lon="30.4825251829"><ele>53.97</ele><time>2026-08-20T12:29:07Z</time></trkpt><trkpt lat="59.1113684233" lon="30.4825183097"><ele>53.97</ele><time>2026-08-20T12:29:21Z</time></trkpt><trkpt lat="59.1115319543" lon="30.4823802598"><ele>53.97</ele><time>2026-08-20T12:29:36Z</time></trkpt><trkpt lat="59.1117531527" lon="30.4822874721"><ele>54.45</ele><time>2026-08-20T12:29:51Z</time></trkpt><trkpt lat="59.1120173503" lon="30.4823033139"><ele>54.45</ele><time>2026-08-20T12:30:07Z</time></trkpt><trkpt lat="59.1121160891" lon="30.4822497535"><ele>54.45</ele><time>2026-08-20T12:30:16Z</time></trkpt><trkpt lat="59.1121428274" lon="30.4822298046"><ele>54.45</ele><time>2026-08-20T12:30:18Z</time></trkpt><trkpt lat="59.1121767741" lon="30.4822155554"><ele>54.45</ele><time>2026-08-20T12:30:20Z</time></trkpt><trkpt lat="59.1124216095" lon="30.4821640905"><ele>54.45</ele><time>2026-08-20T12:30:34Z</time></trkpt><trkpt lat="59.1126665287" lon="30.4820706323"><ele>54.45</ele><time>2026-08-20T12:30:52Z</time></trkpt><trkpt lat="59.1128301434" lon="30.4820050858"><ele>54.93</ele><time>2026-08-20T12:31:04Z</time></trkpt><trkpt lat="59.1128163133" lon="30.4818464164"><ele>54.93</ele><time>2026-08-20T12:31:18Z</time></trkpt><trkpt lat="59.1128022317" lon="30.4818165768"><ele>54.93</ele><time>2026-08-20T12:31:38Z</time></trkpt><trkpt lat="59.1128244437" lon="30.4818361066"><ele>54.93</ele><time>2026-08-20T12:31:47Z</time></trkpt></trkseg></trk></gpx>